<?xml version="1.0" encoding="UTF-8"?>
<gpx version="1.1" creator="2bulu-scraper" xmlns="http://www.topografix.com/GPX/1/1">
  <metadata><name>泸州尖山观</name><desc>source: 2bulu.com trackId=81217789; exported 2026-09-01T14:30:08.447Z</desc>
    <bounds minlat="28.8283" minlon="105.482833" maxlat="28.842847" maxlon="105.492577"/>
    <link href="https://www.2bulu.com/track/t-a6cdYMhhbozp%252FR2KBg5Tzw%253D%253D.htm"><text>2bulu 源页面</text></link>
  </metadata>
  <wpt lat="28.842269" lon="105.489543"><ele>350</ele><name></name></wpt>
  <wpt lat="28.841907" lon="105.489846"><ele>350</ele><name></name></wpt>
  <wpt lat="28.841803" lon="105.490595"><ele>352</ele><name></name></wpt>
  <wpt lat="28.841722" lon="105.49107"><ele>350</ele><name></name></wpt>
  <wpt lat="28.84156" lon="105.491772"><ele>350</ele><name></name></wpt>
  <wpt lat="28.841501" lon="105.491985"><ele>351</ele><name></name></wpt>
  <wpt lat="28.840853" lon="105.492023"><ele>354</ele><name></name></wpt>
  <wpt lat="28.840582" lon="105.492227"><ele>358</ele><name></name></wpt>
  <wpt lat="28.840449" lon="105.492522"><ele>358</ele><name></name></wpt>
  <wpt lat="28.840069" lon="105.492576"><ele>356</ele><name></name></wpt>
  <wpt lat="28.83989" lon="105.492509"><ele>357</ele><name></name></wpt>
  <wpt lat="28.839745" lon="105.49251"><ele>358</ele><name></name></wpt>
  <wpt lat="28.83949" lon="105.491233"><ele>353</ele><name></name></wpt>
  <wpt lat="28.83989" lon="105.490957"><ele>359</ele><name></name></wpt>
  <wpt lat="28.839795" lon="105.489763"><ele>354</ele><name></name></wpt>
  <wpt lat="28.839219" lon="105.490051"><ele>359</ele><name></name></wpt>
  <wpt lat="28.839036" lon="105.490194"><ele>363</ele><name></name></wpt>
  <wpt lat="28.838893" lon="105.490339"><ele>369</ele><name></name></wpt>
  <wpt lat="28.836707" lon="105.490521"><ele>418</ele><name></name></wpt>
  <wpt lat="28.835797" lon="105.490793"><ele>429</ele><name></name></wpt>
  <wpt lat="28.834371" lon="105.491362"><ele>442</ele><name></name></wpt>
  <wpt lat="28.833853" lon="105.491372"><ele>452</ele><name></name></wpt>
  <wpt lat="28.833836" lon="105.491318"><ele>453</ele><name></name></wpt>
  <wpt lat="28.833516" lon="105.491475"><ele>464</ele><name></name></wpt>
  <wpt lat="28.832792" lon="105.490953"><ele>484</ele><name></name></wpt>
  <wpt lat="28.832662" lon="105.490986"><ele>484</ele><name></name></wpt>
  <wpt lat="28.831165" lon="105.491451"><ele>543</ele><name></name></wpt>
  <wpt lat="28.830859" lon="105.491437"><ele>556</ele><name></name></wpt>
  <wpt lat="28.830123" lon="105.491018"><ele>566</ele><name></name></wpt>
  <wpt lat="28.829933" lon="105.490209"><ele>561</ele><name></name></wpt>
  <wpt lat="28.829374" lon="105.489368"><ele>529</ele><name></name></wpt>
  <wpt lat="28.829488" lon="105.489383"><ele>530</ele><name></name></wpt>
  <wpt lat="28.829284" lon="105.488556"><ele>513</ele><name></name></wpt>
  <wpt lat="28.829458" lon="105.487746"><ele>498</ele><name></name></wpt>
  <wpt lat="28.82907" lon="105.486552"><ele>477</ele><name></name></wpt>
  <wpt lat="28.828802" lon="105.48569"><ele>468</ele><name></name></wpt>
  <wpt lat="28.828354" lon="105.485107"><ele>469</ele><name></name></wpt>
  <wpt lat="28.828327" lon="105.484821"><ele>469</ele><name></name></wpt>
  <wpt lat="28.829979" lon="105.484194"><ele>439</ele><name></name></wpt>
  <wpt lat="28.830962" lon="105.484673"><ele>407</ele><name></name></wpt>
  <wpt lat="28.831158" lon="105.484064"><ele>394</ele><name></name></wpt>
  <wpt lat="28.831633" lon="105.483588"><ele>374</ele><name></name></wpt>
  <wpt lat="28.832689" lon="105.483428"><ele>365</ele><name></name></wpt>
  <wpt lat="28.832991" lon="105.483394"><ele>365</ele><name></name></wpt>
  <wpt lat="28.833061" lon="105.483893"><ele>367</ele><name></name></wpt>
  <wpt lat="28.834458" lon="105.483971"><ele>367</ele><name></name></wpt>
  <wpt lat="28.835082" lon="105.483366"><ele>367</ele><name></name></wpt>
  <wpt lat="28.835533" lon="105.483019"><ele>358</ele><name></name></wpt>
  <wpt lat="28.835578" lon="105.482919"><ele>358</ele><name></name></wpt>
  <wpt lat="28.839832" lon="105.486604"><ele>347</ele><name></name></wpt>
  <wpt lat="28.840634" lon="105.487355"><ele>349</ele><name></name></wpt>
  <trk><name>泸州尖山观</name>
      <trkseg>
        <trkpt lat="28.842322" lon="105.489531"><ele>348.88962</ele><time>2026-03-27T22:42:04.000Z</time></trkpt>
        <trkpt lat="28.84231" lon="105.489534"><ele>349.03262</ele><time>2026-03-27T22:42:09.000Z</time></trkpt>
        <trkpt lat="28.842228" lon="105.489549"><ele>348.7074</ele><time>2026-03-27T22:42:17.000Z</time></trkpt>
        <trkpt lat="28.842179" lon="105.489571"><ele>348.8414</ele><time>2026-03-27T22:42:21.000Z</time></trkpt>
        <trkpt lat="28.84206" lon="105.489634"><ele>348.8986</ele><time>2026-03-27T22:42:28.000Z</time></trkpt>
        <trkpt lat="28.842001" lon="105.489676"><ele>349.33862</ele><time>2026-03-27T22:42:37.000Z</time></trkpt>
        <trkpt lat="28.841972" lon="105.48971"><ele>349.95657</ele><time>2026-03-27T22:42:48.000Z</time></trkpt>
        <trkpt lat="28.841935" lon="105.489737"><ele>349.61633</ele><time>2026-03-27T22:43:01.000Z</time></trkpt>
        <trkpt lat="28.841921" lon="105.489784"><ele>349.40994</ele><time>2026-03-27T22:43:09.000Z</time></trkpt>
        <trkpt lat="28.841908" lon="105.48984"><ele>350.26108</ele><time>2026-03-27T22:43:14.000Z</time></trkpt>
        <trkpt lat="28.841884" lon="105.489894"><ele>350.86618</ele><time>2026-03-27T22:43:20.000Z</time></trkpt>
        <trkpt lat="28.841855" lon="105.489952"><ele>351.00415</ele><time>2026-03-27T22:43:33.000Z</time></trkpt>
        <trkpt lat="28.841866" lon="105.490006"><ele>352.46072</ele><time>2026-03-27T22:44:44.000Z</time></trkpt>
        <trkpt lat="28.841865" lon="105.490075"><ele>352.78806</ele><time>2026-03-27T22:44:49.000Z</time></trkpt>
        <trkpt lat="28.841849" lon="105.490159"><ele>352.65738</ele><time>2026-03-27T22:44:59.000Z</time></trkpt>
        <trkpt lat="28.841834" lon="105.490218"><ele>352.4992</ele><time>2026-03-27T22:45:05.000Z</time></trkpt>
        <trkpt lat="28.841851" lon="105.490274"><ele>352.64157</ele><time>2026-03-27T22:45:14.000Z</time></trkpt>
        <trkpt lat="28.841867" lon="105.490324"><ele>352.5934</ele><time>2026-03-27T22:45:19.000Z</time></trkpt>
        <trkpt lat="28.84187" lon="105.490379"><ele>352.69846</ele><time>2026-03-27T22:45:24.000Z</time></trkpt>
        <trkpt lat="28.841865" lon="105.490435"><ele>352.6183</ele><time>2026-03-27T22:45:29.000Z</time></trkpt>
        <trkpt lat="28.841849" lon="105.490486"><ele>352.09213</ele><time>2026-03-27T22:45:34.000Z</time></trkpt>
        <trkpt lat="28.841825" lon="105.490537"><ele>351.49728</ele><time>2026-03-27T22:45:39.000Z</time></trkpt>
        <trkpt lat="28.841805" lon="105.49059"><ele>352.00854</ele><time>2026-03-27T22:45:44.000Z</time></trkpt>
        <trkpt lat="28.841777" lon="105.490654"><ele>352.66043</ele><time>2026-03-27T22:45:53.000Z</time></trkpt>
        <trkpt lat="28.841771" lon="105.4907"><ele>352.00693</ele><time>2026-03-27T22:45:58.000Z</time></trkpt>
        <trkpt lat="28.841779" lon="105.490756"><ele>351.67877</ele><time>2026-03-27T22:46:03.000Z</time></trkpt>
        <trkpt lat="28.841788" lon="105.490814"><ele>351.5932</ele><time>2026-03-27T22:46:09.000Z</time></trkpt>
        <trkpt lat="28.841797" lon="105.490869"><ele>350.40695</ele><time>2026-03-27T22:46:18.000Z</time></trkpt>
        <trkpt lat="28.841795" lon="105.490917"><ele>349.47974</ele><time>2026-03-27T22:46:24.000Z</time></trkpt>
        <trkpt lat="28.841779" lon="105.490973"><ele>349.43347</ele><time>2026-03-27T22:46:33.000Z</time></trkpt>
        <trkpt lat="28.841754" lon="105.491021"><ele>348.76462</ele><time>2026-03-27T22:46:40.000Z</time></trkpt>
        <trkpt lat="28.841726" lon="105.491066"><ele>349.51288</ele><time>2026-03-27T22:46:46.000Z</time></trkpt>
        <trkpt lat="28.841723" lon="105.491117"><ele>348.85373</ele><time>2026-03-27T22:46:52.000Z</time></trkpt>
        <trkpt lat="28.841736" lon="105.491168"><ele>348.55368</ele><time>2026-03-27T22:46:58.000Z</time></trkpt>
        <trkpt lat="28.841742" lon="105.491218"><ele>348.16824</ele><time>2026-03-27T22:47:03.000Z</time></trkpt>
        <trkpt lat="28.841733" lon="105.491272"><ele>348.25748</ele><time>2026-03-27T22:47:08.000Z</time></trkpt>
        <trkpt lat="28.841721" lon="105.491332"><ele>348.3834</ele><time>2026-03-27T22:47:13.000Z</time></trkpt>
        <trkpt lat="28.841715" lon="105.491385"><ele>348.25018</ele><time>2026-03-27T22:47:18.000Z</time></trkpt>
        <trkpt lat="28.841709" lon="105.491444"><ele>349.4269</ele><time>2026-03-27T22:47:24.000Z</time></trkpt>
        <trkpt lat="28.841719" lon="105.491499"><ele>349.49356</ele><time>2026-03-27T22:47:31.000Z</time></trkpt>
        <trkpt lat="28.841716" lon="105.491548"><ele>350.1939</ele><time>2026-03-27T22:47:37.000Z</time></trkpt>
        <trkpt lat="28.841685" lon="105.491599"><ele>349.34302</ele><time>2026-03-27T22:47:52.000Z</time></trkpt>
        <trkpt lat="28.841663" lon="105.491637"><ele>348.53384</ele><time>2026-03-27T22:47:58.000Z</time></trkpt>
        <trkpt lat="28.841637" lon="105.491679"><ele>348.83194</ele><time>2026-03-27T22:48:03.000Z</time></trkpt>
        <trkpt lat="28.841604" lon="105.491729"><ele>349.3528</ele><time>2026-03-27T22:48:09.000Z</time></trkpt>
        <trkpt lat="28.841564" lon="105.491771"><ele>349.55618</ele><time>2026-03-27T22:48:15.000Z</time></trkpt>
        <trkpt lat="28.841533" lon="105.491817"><ele>349.97925</ele><time>2026-03-27T22:48:22.000Z</time></trkpt>
        <trkpt lat="28.841511" lon="105.491871"><ele>350.65866</ele><time>2026-03-27T22:48:31.000Z</time></trkpt>
        <trkpt lat="28.841503" lon="105.491917"><ele>350.99152</ele><time>2026-03-27T22:48:36.000Z</time></trkpt>
        <trkpt lat="28.8415" lon="105.491979"><ele>351.35193</ele><time>2026-03-27T22:48:42.000Z</time></trkpt>
        <trkpt lat="28.841482" lon="105.492038"><ele>353.41837</ele><time>2026-03-27T22:49:42.000Z</time></trkpt>
        <trkpt lat="28.841444" lon="105.492047"><ele>353.71753</ele><time>2026-03-27T22:49:50.000Z</time></trkpt>
        <trkpt lat="28.841397" lon="105.49207"><ele>353.43958</ele><time>2026-03-27T22:49:56.000Z</time></trkpt>
        <trkpt lat="28.841336" lon="105.492071"><ele>353.6699</ele><time>2026-03-27T22:50:13.000Z</time></trkpt>
        <trkpt lat="28.841293" lon="105.492067"><ele>353.30508</ele><time>2026-03-27T22:50:19.000Z</time></trkpt>
        <trkpt lat="28.841245" lon="105.492069"><ele>353.0829</ele><time>2026-03-27T22:50:24.000Z</time></trkpt>
        <trkpt lat="28.841196" lon="105.492066"><ele>353.51773</ele><time>2026-03-27T22:50:30.000Z</time></trkpt>
        <trkpt lat="28.841139" lon="105.492054"><ele>353.23798</ele><time>2026-03-27T22:50:42.000Z</time></trkpt>
        <trkpt lat="28.841105" lon="105.492037"><ele>353.3945</ele><time>2026-03-27T22:50:47.000Z</time></trkpt>
        <trkpt lat="28.841056" lon="105.492022"><ele>353.46826</ele><time>2026-03-27T22:50:53.000Z</time></trkpt>
        <trkpt lat="28.841006" lon="105.492013"><ele>353.59857</ele><time>2026-03-27T22:50:59.000Z</time></trkpt>
        <trkpt lat="28.840957" lon="105.492008"><ele>353.33</ele><time>2026-03-27T22:51:05.000Z</time></trkpt>
        <trkpt lat="28.840897" lon="105.492013"><ele>353.05365</ele><time>2026-03-27T22:51:16.000Z</time></trkpt>
        <trkpt lat="28.840855" lon="105.492023"><ele>353.8264</ele><time>2026-03-27T22:51:24.000Z</time></trkpt>
        <trkpt lat="28.840811" lon="105.492048"><ele>354.59433</ele><time>2026-03-27T22:51:43.000Z</time></trkpt>
        <trkpt lat="28.840773" lon="105.492071"><ele>355.3529</ele><time>2026-03-27T22:51:50.000Z</time></trkpt>
        <trkpt lat="28.840724" lon="105.492092"><ele>355.41174</ele><time>2026-03-27T22:51:58.000Z</time></trkpt>
        <trkpt lat="28.840683" lon="105.492116"><ele>355.80743</ele><time>2026-03-27T22:52:05.000Z</time></trkpt>
        <trkpt lat="28.840638" lon="105.492141"><ele>356.89188</ele><time>2026-03-27T22:52:22.000Z</time></trkpt>
        <trkpt lat="28.840609" lon="105.492175"><ele>357.2922</ele><time>2026-03-27T22:52:30.000Z</time></trkpt>
        <trkpt lat="28.840585" lon="105.492219"><ele>358.15182</ele><time>2026-03-27T22:52:36.000Z</time></trkpt>
        <trkpt lat="28.840554" lon="105.492266"><ele>358.18326</ele><time>2026-03-27T22:52:43.000Z</time></trkpt>
        <trkpt lat="28.840537" lon="105.492318"><ele>356.73123</ele><time>2026-03-27T22:52:52.000Z</time></trkpt>
        <trkpt lat="28.840518" lon="105.492366"><ele>356.50275</ele><time>2026-03-27T22:52:58.000Z</time></trkpt>
        <trkpt lat="28.840503" lon="105.492417"><ele>356.5427</ele><time>2026-03-27T22:53:03.000Z</time></trkpt>
        <trkpt lat="28.840479" lon="105.492467"><ele>357.22568</ele><time>2026-03-27T22:53:09.000Z</time></trkpt>
        <trkpt lat="28.840452" lon="105.492519"><ele>357.92828</ele><time>2026-03-27T22:53:15.000Z</time></trkpt>
        <trkpt lat="28.84041" lon="105.492552"><ele>357.87964</ele><time>2026-03-27T22:53:21.000Z</time></trkpt>
        <trkpt lat="28.840359" lon="105.492575"><ele>357.35483</ele><time>2026-03-27T22:53:28.000Z</time></trkpt>
        <trkpt lat="28.840318" lon="105.492562"><ele>357.56546</ele><time>2026-03-27T22:53:33.000Z</time></trkpt>
        <trkpt lat="28.84027" lon="105.492525"><ele>355.88287</ele><time>2026-03-27T22:53:40.000Z</time></trkpt>
        <trkpt lat="28.840231" lon="105.492515"><ele>355.18304</ele><time>2026-03-27T22:53:44.000Z</time></trkpt>
        <trkpt lat="28.840179" lon="105.492534"><ele>355.40527</ele><time>2026-03-27T22:53:50.000Z</time></trkpt>
        <trkpt lat="28.840131" lon="105.492561"><ele>355.94034</ele><time>2026-03-27T22:53:55.000Z</time></trkpt>
        <trkpt lat="28.840071" lon="105.492577"><ele>355.93137</ele><time>2026-03-27T22:54:01.000Z</time></trkpt>
        <trkpt lat="28.840017" lon="105.492576"><ele>356.62695</ele><time>2026-03-27T22:54:11.000Z</time></trkpt>
        <trkpt lat="28.839976" lon="105.49255"><ele>357.48184</ele><time>2026-03-27T22:54:19.000Z</time></trkpt>
        <trkpt lat="28.839935" lon="105.492519"><ele>357.12387</ele><time>2026-03-27T22:54:45.000Z</time></trkpt>
        <trkpt lat="28.8399" lon="105.492511"><ele>357.10468</ele><time>2026-03-27T22:54:51.000Z</time></trkpt>
        <trkpt lat="28.839849" lon="105.492502"><ele>357.38895</ele><time>2026-03-27T22:54:59.000Z</time></trkpt>
        <trkpt lat="28.8398" lon="105.492506"><ele>357.1258</ele><time>2026-03-27T22:55:04.000Z</time></trkpt>
        <trkpt lat="28.83975" lon="105.49251"><ele>357.39334</ele><time>2026-03-27T22:55:09.000Z</time></trkpt>
        <trkpt lat="28.839711" lon="105.492477"><ele>356.70212</ele><time>2026-03-27T22:55:18.000Z</time></trkpt>
        <trkpt lat="28.839702" lon="105.492427"><ele>357.46872</ele><time>2026-03-27T22:55:22.000Z</time></trkpt>
        <trkpt lat="28.839677" lon="105.492368"><ele>355.78638</ele><time>2026-03-27T22:55:55.000Z</time></trkpt>
        <trkpt lat="28.839642" lon="105.492331"><ele>355.63058</ele><time>2026-03-27T22:56:01.000Z</time></trkpt>
        <trkpt lat="28.839603" lon="105.492271"><ele>352.80148</ele><time>2026-03-27T22:56:15.000Z</time></trkpt>
        <trkpt lat="28.839588" lon="105.492219"><ele>352.95755</ele><time>2026-03-27T22:56:25.000Z</time></trkpt>
        <trkpt lat="28.839577" lon="105.492161"><ele>353.58408</ele><time>2026-03-27T22:56:46.000Z</time></trkpt>
        <trkpt lat="28.839577" lon="105.492113"><ele>353.50845</ele><time>2026-03-27T22:56:52.000Z</time></trkpt>
        <trkpt lat="28.839582" lon="105.492051"><ele>353.76974</ele><time>2026-03-27T22:56:59.000Z</time></trkpt>
        <trkpt lat="28.839579" lon="105.491991"><ele>353.71863</ele><time>2026-03-27T22:57:06.000Z</time></trkpt>
        <trkpt lat="28.839576" lon="105.491939"><ele>353.27145</ele><time>2026-03-27T22:57:12.000Z</time></trkpt>
        <trkpt lat="28.839574" lon="105.49188"><ele>352.8676</ele><time>2026-03-27T22:57:19.000Z</time></trkpt>
        <trkpt lat="28.839568" lon="105.491822"><ele>352.5054</ele><time>2026-03-27T22:57:26.000Z</time></trkpt>
        <trkpt lat="28.839558" lon="105.491763"><ele>352.48108</ele><time>2026-03-27T22:57:36.000Z</time></trkpt>
        <trkpt lat="28.839551" lon="105.491719"><ele>352.7611</ele><time>2026-03-27T22:57:41.000Z</time></trkpt>
        <trkpt lat="28.839531" lon="105.49166"><ele>351.8748</ele><time>2026-03-27T22:57:50.000Z</time></trkpt>
        <trkpt lat="28.839523" lon="105.491603"><ele>352.17966</ele><time>2026-03-27T22:58:17.000Z</time></trkpt>
        <trkpt lat="28.839516" lon="105.491552"><ele>353.00833</ele><time>2026-03-27T22:58:32.000Z</time></trkpt>
        <trkpt lat="28.839489" lon="105.491501"><ele>352.4123</ele><time>2026-03-27T22:58:41.000Z</time></trkpt>
        <trkpt lat="28.839468" lon="105.491446"><ele>352.64212</ele><time>2026-03-27T22:59:04.000Z</time></trkpt>
        <trkpt lat="28.83946" lon="105.491401"><ele>353.21426</ele><time>2026-03-27T22:59:10.000Z</time></trkpt>
        <trkpt lat="28.839448" lon="105.49134"><ele>352.8677</ele><time>2026-03-27T22:59:16.000Z</time></trkpt>
        <trkpt lat="28.839458" lon="105.491282"><ele>352.92545</ele><time>2026-03-27T22:59:22.000Z</time></trkpt>
        <trkpt lat="28.839483" lon="105.491236"><ele>352.95206</ele><time>2026-03-27T22:59:27.000Z</time></trkpt>
        <trkpt lat="28.83951" lon="105.491188"><ele>354.82553</ele><time>2026-03-27T22:59:33.000Z</time></trkpt>
        <trkpt lat="28.839537" lon="105.491143"><ele>356.31534</ele><time>2026-03-27T22:59:40.000Z</time></trkpt>
        <trkpt lat="28.839571" lon="105.49111"><ele>356.95074</ele><time>2026-03-27T22:59:48.000Z</time></trkpt>
        <trkpt lat="28.839607" lon="105.491083"><ele>356.48376</ele><time>2026-03-27T22:59:54.000Z</time></trkpt>
        <trkpt lat="28.839654" lon="105.491064"><ele>356.68</ele><time>2026-03-27T23:00:02.000Z</time></trkpt>
        <trkpt lat="28.839701" lon="105.491048"><ele>356.52368</ele><time>2026-03-27T23:00:11.000Z</time></trkpt>
        <trkpt lat="28.839745" lon="105.491028"><ele>357.36353</ele><time>2026-03-27T23:00:17.000Z</time></trkpt>
        <trkpt lat="28.839801" lon="105.491003"><ele>357.6462</ele><time>2026-03-27T23:00:24.000Z</time></trkpt>
        <trkpt lat="28.839853" lon="105.490987"><ele>357.8831</ele><time>2026-03-27T23:00:37.000Z</time></trkpt>
        <trkpt lat="28.839886" lon="105.490961"><ele>358.5313</ele><time>2026-03-27T23:00:44.000Z</time></trkpt>
        <trkpt lat="28.839925" lon="105.490923"><ele>358.51297</ele><time>2026-03-27T23:00:51.000Z</time></trkpt>
        <trkpt lat="28.839961" lon="105.490866"><ele>358.7321</ele><time>2026-03-27T23:01:09.000Z</time></trkpt>
        <trkpt lat="28.839969" lon="105.490819"><ele>358.92758</ele><time>2026-03-27T23:01:15.000Z</time></trkpt>
        <trkpt lat="28.839979" lon="105.490754"><ele>359.3323</ele><time>2026-03-27T23:01:25.000Z</time></trkpt>
        <trkpt lat="28.839987" lon="105.49071"><ele>359.74997</ele><time>2026-03-27T23:01:29.000Z</time></trkpt>
        <trkpt lat="28.839999" lon="105.490657"><ele>358.98532</ele><time>2026-03-27T23:01:33.000Z</time></trkpt>
        <trkpt lat="28.839985" lon="105.490602"><ele>358.56174</ele><time>2026-03-27T23:01:38.000Z</time></trkpt>
        <trkpt lat="28.839943" lon="105.490585"><ele>358.43924</ele><time>2026-03-27T23:01:43.000Z</time></trkpt>
        <trkpt lat="28.839887" lon="105.49058"><ele>358.09946</ele><time>2026-03-27T23:01:49.000Z</time></trkpt>
        <trkpt lat="28.839849" lon="105.490557"><ele>357.74258</ele><time>2026-03-27T23:01:54.000Z</time></trkpt>
        <trkpt lat="28.839816" lon="105.490502"><ele>357.0236</ele><time>2026-03-27T23:02:05.000Z</time></trkpt>
        <trkpt lat="28.839781" lon="105.49046"><ele>356.43735</ele><time>2026-03-27T23:02:13.000Z</time></trkpt>
        <trkpt lat="28.839741" lon="105.490427"><ele>356.44998</ele><time>2026-03-27T23:02:29.000Z</time></trkpt>
        <trkpt lat="28.839714" lon="105.490394"><ele>356.5785</ele><time>2026-03-27T23:02:34.000Z</time></trkpt>
        <trkpt lat="28.839694" lon="105.490345"><ele>356.2465</ele><time>2026-03-27T23:02:39.000Z</time></trkpt>
        <trkpt lat="28.839676" lon="105.490292"><ele>355.91132</ele><time>2026-03-27T23:02:44.000Z</time></trkpt>
        <trkpt lat="28.839665" lon="105.490234"><ele>354.68604</ele><time>2026-03-27T23:02:50.000Z</time></trkpt>
        <trkpt lat="28.839678" lon="105.490179"><ele>354.24387</ele><time>2026-03-27T23:02:55.000Z</time></trkpt>
        <trkpt lat="28.839682" lon="105.490126"><ele>354.60925</ele><time>2026-03-27T23:03:00.000Z</time></trkpt>
        <trkpt lat="28.839697" lon="105.490071"><ele>355.02856</ele><time>2026-03-27T23:03:06.000Z</time></trkpt>
        <trkpt lat="28.839721" lon="105.490018"><ele>355.25156</ele><time>2026-03-27T23:03:12.000Z</time></trkpt>
        <trkpt lat="28.839744" lon="105.489965"><ele>355.35095</ele><time>2026-03-27T23:03:18.000Z</time></trkpt>
        <trkpt lat="28.839763" lon="105.489918"><ele>355.20657</ele><time>2026-03-27T23:03:23.000Z</time></trkpt>
        <trkpt lat="28.839782" lon="105.489869"><ele>354.25708</ele><time>2026-03-27T23:03:28.000Z</time></trkpt>
        <trkpt lat="28.839797" lon="105.489817"><ele>354.79355</ele><time>2026-03-27T23:03:34.000Z</time></trkpt>
        <trkpt lat="28.839798" lon="105.489764"><ele>354.34238</ele><time>2026-03-27T23:03:42.000Z</time></trkpt>
        <trkpt lat="28.83977" lon="105.489718"><ele>354.91727</ele><time>2026-03-27T23:04:05.000Z</time></trkpt>
        <trkpt lat="28.839742" lon="105.489752"><ele>355.82962</ele><time>2026-03-27T23:04:13.000Z</time></trkpt>
        <trkpt lat="28.83971" lon="105.489795"><ele>356.74872</ele><time>2026-03-27T23:04:21.000Z</time></trkpt>
        <trkpt lat="28.839684" lon="105.48984"><ele>356.74805</ele><time>2026-03-27T23:04:29.000Z</time></trkpt>
        <trkpt lat="28.839638" lon="105.489858"><ele>357.30743</ele><time>2026-03-27T23:04:36.000Z</time></trkpt>
        <trkpt lat="28.839602" lon="105.489891"><ele>357.2509</ele><time>2026-03-27T23:04:42.000Z</time></trkpt>
        <trkpt lat="28.839553" lon="105.48992"><ele>356.72076</ele><time>2026-03-27T23:04:50.000Z</time></trkpt>
        <trkpt lat="28.839505" lon="105.489938"><ele>356.67615</ele><time>2026-03-27T23:05:01.000Z</time></trkpt>
        <trkpt lat="28.839476" lon="105.489973"><ele>355.839</ele><time>2026-03-27T23:05:07.000Z</time></trkpt>
        <trkpt lat="28.839431" lon="105.48999"><ele>355.5385</ele><time>2026-03-27T23:05:12.000Z</time></trkpt>
        <trkpt lat="28.839375" lon="105.490008"><ele>356.91492</ele><time>2026-03-27T23:05:18.000Z</time></trkpt>
        <trkpt lat="28.839323" lon="105.490027"><ele>358.35092</ele><time>2026-03-27T23:05:23.000Z</time></trkpt>
        <trkpt lat="28.839264" lon="105.490049"><ele>358.49588</ele><time>2026-03-27T23:05:31.000Z</time></trkpt>
        <trkpt lat="28.839223" lon="105.490053"><ele>358.9708</ele><time>2026-03-27T23:05:36.000Z</time></trkpt>
        <trkpt lat="28.839168" lon="105.490049"><ele>359.21933</ele><time>2026-03-27T23:05:45.000Z</time></trkpt>
        <trkpt lat="28.839122" lon="105.490056"><ele>359.78094</ele><time>2026-03-27T23:05:52.000Z</time></trkpt>
        <trkpt lat="28.83909" lon="105.490102"><ele>360.92902</ele><time>2026-03-27T23:06:22.000Z</time></trkpt>
        <trkpt lat="28.839079" lon="105.490142"><ele>361.4972</ele><time>2026-03-27T23:06:27.000Z</time></trkpt>
        <trkpt lat="28.839043" lon="105.490191"><ele>362.6961</ele><time>2026-03-27T23:06:34.000Z</time></trkpt>
        <trkpt lat="28.838999" lon="105.490235"><ele>364.5298</ele><time>2026-03-27T23:06:51.000Z</time></trkpt>
        <trkpt lat="28.838968" lon="105.490263"><ele>365.97836</ele><time>2026-03-27T23:06:59.000Z</time></trkpt>
        <trkpt lat="28.838936" lon="105.490307"><ele>367.9077</ele><time>2026-03-27T23:07:06.000Z</time></trkpt>
        <trkpt lat="28.838896" lon="105.490339"><ele>369.11093</ele><time>2026-03-27T23:07:13.000Z</time></trkpt>
        <trkpt lat="28.838855" lon="105.490294"><ele>370.42502</ele><time>2026-03-27T23:07:52.000Z</time></trkpt>
        <trkpt lat="28.838821" lon="105.490257"><ele>371.44937</ele><time>2026-03-27T23:08:02.000Z</time></trkpt>
        <trkpt lat="28.838775" lon="105.490238"><ele>372.4718</ele><time>2026-03-27T23:08:12.000Z</time></trkpt>
        <trkpt lat="28.838737" lon="105.490218"><ele>371.94067</ele><time>2026-03-27T23:08:18.000Z</time></trkpt>
        <trkpt lat="28.838685" lon="105.490215"><ele>373.02625</ele><time>2026-03-27T23:08:24.000Z</time></trkpt>
        <trkpt lat="28.83862" lon="105.490246"><ele>374.0387</ele><time>2026-03-27T23:08:37.000Z</time></trkpt>
        <trkpt lat="28.838576" lon="105.49025"><ele>375.0007</ele><time>2026-03-27T23:08:46.000Z</time></trkpt>
        <trkpt lat="28.838529" lon="105.490243"><ele>376.78088</ele><time>2026-03-27T23:08:55.000Z</time></trkpt>
        <trkpt lat="28.838481" lon="105.490244"><ele>379.17014</ele><time>2026-03-27T23:09:06.000Z</time></trkpt>
        <trkpt lat="28.838434" lon="105.490248"><ele>379.5768</ele><time>2026-03-27T23:09:15.000Z</time></trkpt>
        <trkpt lat="28.838385" lon="105.49025"><ele>379.60062</ele><time>2026-03-27T23:09:21.000Z</time></trkpt>
        <trkpt lat="28.838341" lon="105.490251"><ele>380.0744</ele><time>2026-03-27T23:09:26.000Z</time></trkpt>
        <trkpt lat="28.838285" lon="105.49025"><ele>380.49985</ele><time>2026-03-27T23:09:32.000Z</time></trkpt>
        <trkpt lat="28.838239" lon="105.490241"><ele>380.8771</ele><time>2026-03-27T23:09:37.000Z</time></trkpt>
        <trkpt lat="28.838185" lon="105.49023"><ele>380.91464</ele><time>2026-03-27T23:09:42.000Z</time></trkpt>
        <trkpt lat="28.838134" lon="105.490231"><ele>381.5654</ele><time>2026-03-27T23:09:47.000Z</time></trkpt>
        <trkpt lat="28.838083" lon="105.490219"><ele>381.6704</ele><time>2026-03-27T23:09:52.000Z</time></trkpt>
        <trkpt lat="28.838023" lon="105.490213"><ele>382.2404</ele><time>2026-03-27T23:10:30.000Z</time></trkpt>
        <trkpt lat="28.837978" lon="105.490201"><ele>384.22797</ele><time>2026-03-27T23:12:30.000Z</time></trkpt>
        <trkpt lat="28.837929" lon="105.490196"><ele>381.76428</ele><time>2026-03-27T23:12:45.000Z</time></trkpt>
        <trkpt lat="28.837881" lon="105.49018"><ele>383.36026</ele><time>2026-03-27T23:12:59.000Z</time></trkpt>
        <trkpt lat="28.83783" lon="105.49017"><ele>382.60974</ele><time>2026-03-27T23:13:08.000Z</time></trkpt>
        <trkpt lat="28.837785" lon="105.490181"><ele>382.0215</ele><time>2026-03-27T23:13:15.000Z</time></trkpt>
        <trkpt lat="28.837737" lon="105.490176"><ele>382.29483</ele><time>2026-03-27T23:13:21.000Z</time></trkpt>
        <trkpt lat="28.837686" lon="105.490182"><ele>383.93747</ele><time>2026-03-27T23:13:29.000Z</time></trkpt>
        <trkpt lat="28.837645" lon="105.490192"><ele>385.76794</ele><time>2026-03-27T23:13:34.000Z</time></trkpt>
        <trkpt lat="28.837596" lon="105.490215"><ele>386.4143</ele><time>2026-03-27T23:13:41.000Z</time></trkpt>
        <trkpt lat="28.837552" lon="105.490238"><ele>385.41983</ele><time>2026-03-27T23:13:47.000Z</time></trkpt>
        <trkpt lat="28.837493" lon="105.49025"><ele>386.3002</ele><time>2026-03-27T23:13:52.000Z</time></trkpt>
        <trkpt lat="28.837444" lon="105.49028"><ele>389.64188</ele><time>2026-03-27T23:14:15.000Z</time></trkpt>
        <trkpt lat="28.837415" lon="105.49032"><ele>392.56924</ele><time>2026-03-27T23:14:57.000Z</time></trkpt>
        <trkpt lat="28.837392" lon="105.490371"><ele>393.09668</ele><time>2026-03-27T23:15:03.000Z</time></trkpt>
        <trkpt lat="28.837341" lon="105.490396"><ele>395.58167</ele><time>2026-03-27T23:15:15.000Z</time></trkpt>
        <trkpt lat="28.837301" lon="105.490419"><ele>396.50598</ele><time>2026-03-27T23:15:25.000Z</time></trkpt>
        <trkpt lat="28.837238" lon="105.490417"><ele>397.6432</ele><time>2026-03-27T23:15:45.000Z</time></trkpt>
        <trkpt lat="28.837198" lon="105.490392"><ele>399.16492</ele><time>2026-03-27T23:15:52.000Z</time></trkpt>
        <trkpt lat="28.837164" lon="105.490427"><ele>400.51077</ele><time>2026-03-27T23:15:59.000Z</time></trkpt>
        <trkpt lat="28.837114" lon="105.490432"><ele>402.02512</ele><time>2026-03-27T23:16:11.000Z</time></trkpt>
        <trkpt lat="28.837072" lon="105.490408"><ele>404.8078</ele><time>2026-03-27T23:16:20.000Z</time></trkpt>
        <trkpt lat="28.837027" lon="105.490389"><ele>406.38382</ele><time>2026-03-27T23:16:30.000Z</time></trkpt>
        <trkpt lat="28.836983" lon="105.490416"><ele>407.53885</ele><time>2026-03-27T23:16:40.000Z</time></trkpt>
        <trkpt lat="28.836927" lon="105.490452"><ele>408.46014</ele><time>2026-03-27T23:17:10.000Z</time></trkpt>
        <trkpt lat="28.836884" lon="105.490444"><ele>409.9022</ele><time>2026-03-27T23:17:21.000Z</time></trkpt>
        <trkpt lat="28.836829" lon="105.49044"><ele>411.59552</ele><time>2026-03-27T23:17:39.000Z</time></trkpt>
        <trkpt lat="28.8368" lon="105.490464"><ele>412.9854</ele><time>2026-03-27T23:17:44.000Z</time></trkpt>
        <trkpt lat="28.836748" lon="105.490489"><ele>415.39282</ele><time>2026-03-27T23:17:57.000Z</time></trkpt>
        <trkpt lat="28.83671" lon="105.490517"><ele>417.47708</ele><time>2026-03-27T23:18:05.000Z</time></trkpt>
        <trkpt lat="28.836727" lon="105.490468"><ele>416.9923</ele><time>2026-03-27T23:21:52.000Z</time></trkpt>
        <trkpt lat="28.836708" lon="105.490522"><ele>418.05383</ele><time>2026-03-27T23:25:41.000Z</time></trkpt>
        <trkpt lat="28.836643" lon="105.490542"><ele>418.04785</ele><time>2026-03-27T23:26:17.000Z</time></trkpt>
        <trkpt lat="28.836667" lon="105.490509"><ele>418.02896</ele><time>2026-03-27T23:26:22.000Z</time></trkpt>
        <trkpt lat="28.836656" lon="105.490536"><ele>417.4691</ele><time>2026-03-27T23:26:31.000Z</time></trkpt>
        <trkpt lat="28.836611" lon="105.490562"><ele>417.37106</ele><time>2026-03-27T23:26:38.000Z</time></trkpt>
        <trkpt lat="28.836565" lon="105.490579"><ele>417.28116</ele><time>2026-03-27T23:26:44.000Z</time></trkpt>
        <trkpt lat="28.836515" lon="105.490579"><ele>417.58575</ele><time>2026-03-27T23:26:50.000Z</time></trkpt>
        <trkpt lat="28.836455" lon="105.49057"><ele>417.6527</ele><time>2026-03-27T23:26:57.000Z</time></trkpt>
        <trkpt lat="28.836402" lon="105.490563"><ele>416.02493</ele><time>2026-03-27T23:27:20.000Z</time></trkpt>
        <trkpt lat="28.836361" lon="105.490562"><ele>416.26486</ele><time>2026-03-27T23:27:28.000Z</time></trkpt>
        <trkpt lat="28.836309" lon="105.49058"><ele>416.99747</ele><time>2026-03-27T23:27:50.000Z</time></trkpt>
        <trkpt lat="28.836294" lon="105.490631"><ele>420.9461</ele><time>2026-03-27T23:28:26.000Z</time></trkpt>
        <trkpt lat="28.836275" lon="105.49068"><ele>421.3379</ele><time>2026-03-27T23:29:14.000Z</time></trkpt>
        <trkpt lat="28.836231" lon="105.490695"><ele>421.63727</ele><time>2026-03-27T23:29:21.000Z</time></trkpt>
        <trkpt lat="28.836177" lon="105.490718"><ele>422.84436</ele><time>2026-03-27T23:29:29.000Z</time></trkpt>
        <trkpt lat="28.836131" lon="105.490723"><ele>423.7284</ele><time>2026-03-27T23:29:36.000Z</time></trkpt>
        <trkpt lat="28.836076" lon="105.490729"><ele>425.3507</ele><time>2026-03-27T23:29:46.000Z</time></trkpt>
        <trkpt lat="28.836031" lon="105.490716"><ele>426.75156</ele><time>2026-03-27T23:29:52.000Z</time></trkpt>
        <trkpt lat="28.835972" lon="105.490715"><ele>424.86597</ele><time>2026-03-27T23:30:05.000Z</time></trkpt>
        <trkpt lat="28.835918" lon="105.490715"><ele>425.39374</ele><time>2026-03-27T23:30:14.000Z</time></trkpt>
        <trkpt lat="28.835887" lon="105.490752"><ele>425.98624</ele><time>2026-03-27T23:30:21.000Z</time></trkpt>
        <trkpt lat="28.835846" lon="105.490785"><ele>427.3372</ele><time>2026-03-27T23:30:29.000Z</time></trkpt>
        <trkpt lat="28.835798" lon="105.490795"><ele>428.83112</ele><time>2026-03-27T23:30:38.000Z</time></trkpt>
        <trkpt lat="28.83575" lon="105.490815"><ele>428.85187</ele><time>2026-03-27T23:30:53.000Z</time></trkpt>
        <trkpt lat="28.835708" lon="105.490842"><ele>429.92828</ele><time>2026-03-27T23:31:00.000Z</time></trkpt>
        <trkpt lat="28.835665" lon="105.490869"><ele>430.3363</ele><time>2026-03-27T23:31:07.000Z</time></trkpt>
        <trkpt lat="28.835633" lon="105.490911"><ele>431.28186</ele><time>2026-03-27T23:31:17.000Z</time></trkpt>
        <trkpt lat="28.835613" lon="105.490957"><ele>430.77792</ele><time>2026-03-27T23:31:25.000Z</time></trkpt>
        <trkpt lat="28.835588" lon="105.491"><ele>431.06332</ele><time>2026-03-27T23:31:30.000Z</time></trkpt>
        <trkpt lat="28.835541" lon="105.491029"><ele>432.93573</ele><time>2026-03-27T23:31:46.000Z</time></trkpt>
        <trkpt lat="28.835521" lon="105.491078"><ele>433.8241</ele><time>2026-03-27T23:32:28.000Z</time></trkpt>
        <trkpt lat="28.835481" lon="105.491112"><ele>432.90387</ele><time>2026-03-27T23:32:49.000Z</time></trkpt>
        <trkpt lat="28.835438" lon="105.491138"><ele>433.6388</ele><time>2026-03-27T23:32:59.000Z</time></trkpt>
        <trkpt lat="28.83539" lon="105.491151"><ele>434.1744</ele><time>2026-03-27T23:33:09.000Z</time></trkpt>
        <trkpt lat="28.835348" lon="105.49116"><ele>434.69714</ele><time>2026-03-27T23:33:15.000Z</time></trkpt>
        <trkpt lat="28.8353" lon="105.491173"><ele>435.2794</ele><time>2026-03-27T23:33:21.000Z</time></trkpt>
        <trkpt lat="28.835248" lon="105.491201"><ele>435.99976</ele><time>2026-03-27T23:33:41.000Z</time></trkpt>
        <trkpt lat="28.835211" lon="105.491218"><ele>436.3336</ele><time>2026-03-27T23:33:47.000Z</time></trkpt>
        <trkpt lat="28.835149" lon="105.491258"><ele>435.49683</ele><time>2026-03-27T23:33:55.000Z</time></trkpt>
        <trkpt lat="28.835116" lon="105.491215"><ele>435.6254</ele><time>2026-03-27T23:34:13.000Z</time></trkpt>
        <trkpt lat="28.835066" lon="105.491214"><ele>437.1273</ele><time>2026-03-27T23:34:25.000Z</time></trkpt>
        <trkpt lat="28.835013" lon="105.491214"><ele>437.50793</ele><time>2026-03-27T23:34:33.000Z</time></trkpt>
        <trkpt lat="28.834961" lon="105.491206"><ele>438.17215</ele><time>2026-03-27T23:34:50.000Z</time></trkpt>
        <trkpt lat="28.834918" lon="105.491198"><ele>438.91602</ele><time>2026-03-27T23:34:56.000Z</time></trkpt>
        <trkpt lat="28.834861" lon="105.491199"><ele>438.84805</ele><time>2026-03-27T23:35:07.000Z</time></trkpt>
        <trkpt lat="28.834821" lon="105.491222"><ele>438.11945</ele><time>2026-03-27T23:35:13.000Z</time></trkpt>
        <trkpt lat="28.83477" lon="105.491227"><ele>439.63083</ele><time>2026-03-27T23:35:22.000Z</time></trkpt>
        <trkpt lat="28.834725" lon="105.491248"><ele>441.15237</ele><time>2026-03-27T23:35:34.000Z</time></trkpt>
        <trkpt lat="28.834681" lon="105.491265"><ele>440.5316</ele><time>2026-03-27T23:35:42.000Z</time></trkpt>
        <trkpt lat="28.834687" lon="105.491214"><ele>440.06366</ele><time>2026-03-27T23:39:10.000Z</time></trkpt>
        <trkpt lat="28.834654" lon="105.491255"><ele>438.79922</ele><time>2026-03-27T23:39:48.000Z</time></trkpt>
        <trkpt lat="28.834664" lon="105.491354"><ele>434.13452</ele><time>2026-03-27T23:39:56.000Z</time></trkpt>
        <trkpt lat="28.834652" lon="105.49133"><ele>435.47345</ele><time>2026-03-27T23:39:57.000Z</time></trkpt>
        <trkpt lat="28.834602" lon="105.491319"><ele>437.6563</ele><time>2026-03-27T23:40:02.000Z</time></trkpt>
        <trkpt lat="28.834537" lon="105.491306"><ele>440.2677</ele><time>2026-03-27T23:40:08.000Z</time></trkpt>
        <trkpt lat="28.834477" lon="105.491306"><ele>440.69485</ele><time>2026-03-27T23:40:13.000Z</time></trkpt>
        <trkpt lat="28.834431" lon="105.491338"><ele>440.97958</ele><time>2026-03-27T23:40:20.000Z</time></trkpt>
        <trkpt lat="28.83445" lon="105.491337"><ele>441.1851</ele><time>2026-03-27T23:40:21.000Z</time></trkpt>
        <trkpt lat="28.834436" lon="105.49134"><ele>441.2653</ele><time>2026-03-27T23:40:23.000Z</time></trkpt>
        <trkpt lat="28.834382" lon="105.49136"><ele>441.87143</ele><time>2026-03-27T23:40:29.000Z</time></trkpt>
        <trkpt lat="28.834326" lon="105.491383"><ele>441.0861</ele><time>2026-03-27T23:40:35.000Z</time></trkpt>
        <trkpt lat="28.83428" lon="105.491415"><ele>440.81604</ele><time>2026-03-27T23:40:49.000Z</time></trkpt>
        <trkpt lat="28.834242" lon="105.491439"><ele>442.5261</ele><time>2026-03-27T23:40:57.000Z</time></trkpt>
        <trkpt lat="28.834195" lon="105.491455"><ele>443.53427</ele><time>2026-03-27T23:41:05.000Z</time></trkpt>
        <trkpt lat="28.83415" lon="105.49148"><ele>445.54272</ele><time>2026-03-27T23:41:11.000Z</time></trkpt>
        <trkpt lat="28.834097" lon="105.491495"><ele>446.21756</ele><time>2026-03-27T23:41:17.000Z</time></trkpt>
        <trkpt lat="28.834045" lon="105.491491"><ele>447.01498</ele><time>2026-03-27T23:41:23.000Z</time></trkpt>
        <trkpt lat="28.834" lon="105.491484"><ele>448.24527</ele><time>2026-03-27T23:41:28.000Z</time></trkpt>
        <trkpt lat="28.833949" lon="105.491476"><ele>448.3775</ele><time>2026-03-27T23:41:48.000Z</time></trkpt>
        <trkpt lat="28.83391" lon="105.491469"><ele>447.96127</ele><time>2026-03-27T23:41:56.000Z</time></trkpt>
        <trkpt lat="28.833869" lon="105.491426"><ele>449.18793</ele><time>2026-03-27T23:42:05.000Z</time></trkpt>
        <trkpt lat="28.833852" lon="105.491377"><ele>451.62173</ele><time>2026-03-27T23:42:12.000Z</time></trkpt>
        <trkpt lat="28.833836" lon="105.491317"><ele>452.73047</ele><time>2026-03-27T23:42:48.000Z</time></trkpt>
        <trkpt lat="28.833784" lon="105.491316"><ele>453.8823</ele><time>2026-03-27T23:43:38.000Z</time></trkpt>
        <trkpt lat="28.833741" lon="105.491323"><ele>455.168</ele><time>2026-03-27T23:43:43.000Z</time></trkpt>
        <trkpt lat="28.833687" lon="105.491352"><ele>457.55786</ele><time>2026-03-27T23:43:57.000Z</time></trkpt>
        <trkpt lat="28.833654" lon="105.49139"><ele>459.1303</ele><time>2026-03-27T23:44:23.000Z</time></trkpt>
        <trkpt lat="28.833587" lon="105.491407"><ele>460.55286</ele><time>2026-03-27T23:44:55.000Z</time></trkpt>
        <trkpt lat="28.833549" lon="105.491438"><ele>462.9195</ele><time>2026-03-27T23:45:10.000Z</time></trkpt>
        <trkpt lat="28.833517" lon="105.491474"><ele>463.65204</ele><time>2026-03-27T23:45:23.000Z</time></trkpt>
        <trkpt lat="28.833471" lon="105.491472"><ele>464.85934</ele><time>2026-03-27T23:45:34.000Z</time></trkpt>
        <trkpt lat="28.833456" lon="105.49142"><ele>465.07236</ele><time>2026-03-27T23:45:43.000Z</time></trkpt>
        <trkpt lat="28.833439" lon="105.491363"><ele>464.6899</ele><time>2026-03-27T23:45:53.000Z</time></trkpt>
        <trkpt lat="28.833407" lon="105.491324"><ele>465.39838</ele><time>2026-03-27T23:46:00.000Z</time></trkpt>
        <trkpt lat="28.833367" lon="105.491289"><ele>466.58902</ele><time>2026-03-27T23:46:07.000Z</time></trkpt>
        <trkpt lat="28.833321" lon="105.491256"><ele>469.2737</ele><time>2026-03-27T23:46:16.000Z</time></trkpt>
        <trkpt lat="28.833275" lon="105.491236"><ele>470.6256</ele><time>2026-03-27T23:46:24.000Z</time></trkpt>
        <trkpt lat="28.833226" lon="105.491209"><ele>471.01166</ele><time>2026-03-27T23:46:36.000Z</time></trkpt>
        <trkpt lat="28.833185" lon="105.491178"><ele>471.78278</ele><time>2026-03-27T23:46:58.000Z</time></trkpt>
        <trkpt lat="28.833132" lon="105.491132"><ele>475.34116</ele><time>2026-03-27T23:47:16.000Z</time></trkpt>
        <trkpt lat="28.833086" lon="105.491131"><ele>476.3671</ele><time>2026-03-27T23:47:29.000Z</time></trkpt>
        <trkpt lat="28.833041" lon="105.491114"><ele>477.57938</ele><time>2026-03-27T23:47:40.000Z</time></trkpt>
        <trkpt lat="28.833011" lon="105.491072"><ele>477.70435</ele><time>2026-03-27T23:47:51.000Z</time></trkpt>
        <trkpt lat="28.832982" lon="105.491028"><ele>478.33615</ele><time>2026-03-27T23:47:58.000Z</time></trkpt>
        <trkpt lat="28.832932" lon="105.491002"><ele>479.72638</ele><time>2026-03-27T23:48:10.000Z</time></trkpt>
        <trkpt lat="28.832886" lon="105.490991"><ele>480.03662</ele><time>2026-03-27T23:48:22.000Z</time></trkpt>
        <trkpt lat="28.832836" lon="105.490975"><ele>481.48102</ele><time>2026-03-27T23:48:32.000Z</time></trkpt>
        <trkpt lat="28.832792" lon="105.490953"><ele>483.7055</ele><time>2026-03-27T23:48:48.000Z</time></trkpt>
        <trkpt lat="28.832733" lon="105.490915"><ele>483.1771</ele><time>2026-03-27T23:49:06.000Z</time></trkpt>
        <trkpt lat="28.832696" lon="105.490938"><ele>483.05655</ele><time>2026-03-27T23:49:12.000Z</time></trkpt>
        <trkpt lat="28.832665" lon="105.490977"><ele>483.74988</ele><time>2026-03-27T23:49:17.000Z</time></trkpt>
        <trkpt lat="28.832616" lon="105.490997"><ele>485.89575</ele><time>2026-03-27T23:49:47.000Z</time></trkpt>
        <trkpt lat="28.832587" lon="105.491013"><ele>486.29645</ele><time>2026-03-27T23:49:53.000Z</time></trkpt>
        <trkpt lat="28.83253" lon="105.491028"><ele>489.99512</ele><time>2026-03-27T23:50:20.000Z</time></trkpt>
        <trkpt lat="28.832488" lon="105.491007"><ele>490.9362</ele><time>2026-03-27T23:50:32.000Z</time></trkpt>
        <trkpt lat="28.832444" lon="105.490985"><ele>491.4459</ele><time>2026-03-27T23:50:45.000Z</time></trkpt>
        <trkpt lat="28.832418" lon="105.490943"><ele>492.4495</ele><time>2026-03-27T23:50:59.000Z</time></trkpt>
        <trkpt lat="28.832401" lon="105.490893"><ele>492.20224</ele><time>2026-03-27T23:51:15.000Z</time></trkpt>
        <trkpt lat="28.83238" lon="105.490845"><ele>493.468</ele><time>2026-03-27T23:51:22.000Z</time></trkpt>
        <trkpt lat="28.832332" lon="105.490812"><ele>495.58078</ele><time>2026-03-27T23:51:33.000Z</time></trkpt>
        <trkpt lat="28.832299" lon="105.490776"><ele>495.14886</ele><time>2026-03-27T23:51:44.000Z</time></trkpt>
        <trkpt lat="28.832263" lon="105.490749"><ele>495.88086</ele><time>2026-03-27T23:51:52.000Z</time></trkpt>
        <trkpt lat="28.832225" lon="105.490715"><ele>495.23956</ele><time>2026-03-27T23:52:05.000Z</time></trkpt>
        <trkpt lat="28.832183" lon="105.490708"><ele>495.04428</ele><time>2026-03-27T23:52:14.000Z</time></trkpt>
        <trkpt lat="28.832136" lon="105.490716"><ele>495.77155</ele><time>2026-03-27T23:52:22.000Z</time></trkpt>
        <trkpt lat="28.83209" lon="105.490733"><ele>497.63394</ele><time>2026-03-27T23:52:30.000Z</time></trkpt>
        <trkpt lat="28.832041" lon="105.490726"><ele>499.46207</ele><time>2026-03-27T23:52:41.000Z</time></trkpt>
        <trkpt lat="28.831998" lon="105.49073"><ele>500.24454</ele><time>2026-03-27T23:52:49.000Z</time></trkpt>
        <trkpt lat="28.831951" lon="105.490742"><ele>501.57605</ele><time>2026-03-27T23:52:58.000Z</time></trkpt>
        <trkpt lat="28.831924" lon="105.490787"><ele>505.19742</ele><time>2026-03-27T23:53:34.000Z</time></trkpt>
        <trkpt lat="28.831901" lon="105.49083"><ele>506.7566</ele><time>2026-03-27T23:53:48.000Z</time></trkpt>
        <trkpt lat="28.83187" lon="105.490882"><ele>508.6307</ele><time>2026-03-27T23:54:07.000Z</time></trkpt>
        <trkpt lat="28.831832" lon="105.490899"><ele>510.1273</ele><time>2026-03-27T23:54:14.000Z</time></trkpt>
        <trkpt lat="28.83179" lon="105.490887"><ele>511.51947</ele><time>2026-03-27T23:54:19.000Z</time></trkpt>
        <trkpt lat="28.831741" lon="105.490902"><ele>513.90436</ele><time>2026-03-27T23:54:36.000Z</time></trkpt>
        <trkpt lat="28.831705" lon="105.490938"><ele>516.2299</ele><time>2026-03-27T23:55:02.000Z</time></trkpt>
        <trkpt lat="28.831662" lon="105.490956"><ele>516.9663</ele><time>2026-03-27T23:55:38.000Z</time></trkpt>
        <trkpt lat="28.831614" lon="105.490938"><ele>518.62164</ele><time>2026-03-27T23:56:28.000Z</time></trkpt>
        <trkpt lat="28.831572" lon="105.490944"><ele>519.9453</ele><time>2026-03-27T23:56:38.000Z</time></trkpt>
        <trkpt lat="28.831537" lon="105.490999"><ele>522.2217</ele><time>2026-03-27T23:56:57.000Z</time></trkpt>
        <trkpt lat="28.831489" lon="105.491004"><ele>523.9943</ele><time>2026-03-27T23:57:26.000Z</time></trkpt>
        <trkpt lat="28.83147" lon="105.491036"><ele>524.6121</ele><time>2026-03-27T23:57:31.000Z</time></trkpt>
        <trkpt lat="28.83146" lon="105.4911"><ele>527.2834</ele><time>2026-03-27T23:57:45.000Z</time></trkpt>
        <trkpt lat="28.831451" lon="105.491152"><ele>528.3296</ele><time>2026-03-27T23:57:59.000Z</time></trkpt>
        <trkpt lat="28.831454" lon="105.491204"><ele>529.46454</ele><time>2026-03-27T23:58:26.000Z</time></trkpt>
        <trkpt lat="28.831438" lon="105.491252"><ele>530.1179</ele><time>2026-03-27T23:58:55.000Z</time></trkpt>
        <trkpt lat="28.831453" lon="105.491302"><ele>531.8573</ele><time>2026-03-27T23:59:20.000Z</time></trkpt>
        <trkpt lat="28.831406" lon="105.491297"><ele>531.45404</ele><time>2026-03-28T00:00:15.000Z</time></trkpt>
        <trkpt lat="28.83143" lon="105.491344"><ele>532.22546</ele><time>2026-03-28T00:00:39.000Z</time></trkpt>
        <trkpt lat="28.831392" lon="105.491371"><ele>534.9137</ele><time>2026-03-28T00:01:04.000Z</time></trkpt>
        <trkpt lat="28.831343" lon="105.491366"><ele>536.40045</ele><time>2026-03-28T00:01:47.000Z</time></trkpt>
        <trkpt lat="28.831318" lon="105.491406"><ele>537.73236</ele><time>2026-03-28T00:02:00.000Z</time></trkpt>
        <trkpt lat="28.831265" lon="105.491425"><ele>538.66095</ele><time>2026-03-28T00:03:49.000Z</time></trkpt>
        <trkpt lat="28.831314" lon="105.491415"><ele>538.2981</ele><time>2026-03-28T00:04:13.000Z</time></trkpt>
        <trkpt lat="28.831267" lon="105.491412"><ele>539.4842</ele><time>2026-03-28T00:04:34.000Z</time></trkpt>
        <trkpt lat="28.831212" lon="105.491417"><ele>541.722</ele><time>2026-03-28T00:04:40.000Z</time></trkpt>
        <trkpt lat="28.831165" lon="105.491451"><ele>543.3351</ele><time>2026-03-28T00:05:05.000Z</time></trkpt>
        <trkpt lat="28.831122" lon="105.491474"><ele>543.64514</ele><time>2026-03-28T00:05:27.000Z</time></trkpt>
        <trkpt lat="28.831083" lon="105.491465"><ele>543.95526</ele><time>2026-03-28T00:05:31.000Z</time></trkpt>
        <trkpt lat="28.831045" lon="105.491416"><ele>546.5115</ele><time>2026-03-28T00:05:42.000Z</time></trkpt>
        <trkpt lat="28.831002" lon="105.491428"><ele>548.9455</ele><time>2026-03-28T00:05:57.000Z</time></trkpt>
        <trkpt lat="28.830954" lon="105.491436"><ele>552.4337</ele><time>2026-03-28T00:06:15.000Z</time></trkpt>
        <trkpt lat="28.830908" lon="105.491428"><ele>554.5834</ele><time>2026-03-28T00:06:25.000Z</time></trkpt>
        <trkpt lat="28.830863" lon="105.491435"><ele>555.7266</ele><time>2026-03-28T00:06:32.000Z</time></trkpt>
        <trkpt lat="28.830812" lon="105.491459"><ele>556.255</ele><time>2026-03-28T00:06:41.000Z</time></trkpt>
        <trkpt lat="28.830778" lon="105.491422"><ele>558.3529</ele><time>2026-03-28T00:06:54.000Z</time></trkpt>
        <trkpt lat="28.830779" lon="105.491365"><ele>557.01465</ele><time>2026-03-28T00:07:18.000Z</time></trkpt>
        <trkpt lat="28.830814" lon="105.491331"><ele>557.6297</ele><time>2026-03-28T00:07:23.000Z</time></trkpt>
        <trkpt lat="28.830811" lon="105.49129"><ele>558.8492</ele><time>2026-03-28T00:07:26.000Z</time></trkpt>
        <trkpt lat="28.830785" lon="105.491221"><ele>560.1188</ele><time>2026-03-28T00:07:34.000Z</time></trkpt>
        <trkpt lat="28.830756" lon="105.491171"><ele>561.8941</ele><time>2026-03-28T00:07:44.000Z</time></trkpt>
        <trkpt lat="28.830762" lon="105.491098"><ele>562.2758</ele><time>2026-03-28T00:08:25.000Z</time></trkpt>
        <trkpt lat="28.830768" lon="105.491173"><ele>561.8496</ele><time>2026-03-28T00:08:45.000Z</time></trkpt>
        <trkpt lat="28.830795" lon="105.491216"><ele>561.1646</ele><time>2026-03-28T00:08:58.000Z</time></trkpt>
        <trkpt lat="28.830765" lon="105.491166"><ele>560.117</ele><time>2026-03-28T00:09:16.000Z</time></trkpt>
        <trkpt lat="28.830735" lon="105.491111"><ele>561.367</ele><time>2026-03-28T00:09:27.000Z</time></trkpt>
        <trkpt lat="28.830698" lon="105.491143"><ele>564.1719</ele><time>2026-03-28T00:10:33.000Z</time></trkpt>
        <trkpt lat="28.830661" lon="105.491163"><ele>565.80817</ele><time>2026-03-28T00:10:40.000Z</time></trkpt>
        <trkpt lat="28.830596" lon="105.491201"><ele>566.6759</ele><time>2026-03-28T00:11:02.000Z</time></trkpt>
        <trkpt lat="28.830549" lon="105.491198"><ele>569.9713</ele><time>2026-03-28T00:11:16.000Z</time></trkpt>
        <trkpt lat="28.830493" lon="105.491206"><ele>569.72577</ele><time>2026-03-28T00:11:52.000Z</time></trkpt>
        <trkpt lat="28.830501" lon="105.491257"><ele>566.21344</ele><time>2026-03-28T00:12:23.000Z</time></trkpt>
        <trkpt lat="28.830478" lon="105.49128"><ele>566.32983</ele><time>2026-03-28T00:12:26.000Z</time></trkpt>
        <trkpt lat="28.830417" lon="105.491292"><ele>566.3147</ele><time>2026-03-28T00:12:35.000Z</time></trkpt>
        <trkpt lat="28.830366" lon="105.491286"><ele>568.47076</ele><time>2026-03-28T00:12:59.000Z</time></trkpt>
        <trkpt lat="28.830324" lon="105.491255"><ele>570.33813</ele><time>2026-03-28T00:14:55.000Z</time></trkpt>
        <trkpt lat="28.830285" lon="105.49126"><ele>569.5244</ele><time>2026-03-28T00:15:00.000Z</time></trkpt>
        <trkpt lat="28.83023" lon="105.491254"><ele>569.5663</ele><time>2026-03-28T00:15:07.000Z</time></trkpt>
        <trkpt lat="28.830279" lon="105.491249"><ele>567.5135</ele><time>2026-03-28T00:15:38.000Z</time></trkpt>
        <trkpt lat="28.830327" lon="105.491262"><ele>566.55676</ele><time>2026-03-28T00:15:43.000Z</time></trkpt>
        <trkpt lat="28.830362" lon="105.49131"><ele>564.5774</ele><time>2026-03-28T00:16:04.000Z</time></trkpt>
        <trkpt lat="28.830316" lon="105.491293"><ele>565.80145</ele><time>2026-03-28T00:16:34.000Z</time></trkpt>
        <trkpt lat="28.830275" lon="105.491306"><ele>565.4809</ele><time>2026-03-28T00:16:44.000Z</time></trkpt>
        <trkpt lat="28.830216" lon="105.491291"><ele>566.6737</ele><time>2026-03-28T00:16:54.000Z</time></trkpt>
        <trkpt lat="28.83019" lon="105.491243"><ele>566.6859</ele><time>2026-03-28T00:17:05.000Z</time></trkpt>
        <trkpt lat="28.830159" lon="105.491201"><ele>566.07336</ele><time>2026-03-28T00:17:54.000Z</time></trkpt>
        <trkpt lat="28.830128" lon="105.49115"><ele>567.3424</ele><time>2026-03-28T00:18:04.000Z</time></trkpt>
        <trkpt lat="28.830096" lon="105.4911"><ele>567.1714</ele><time>2026-03-28T00:18:09.000Z</time></trkpt>
        <trkpt lat="28.830086" lon="105.491041"><ele>567.7703</ele><time>2026-03-28T00:18:23.000Z</time></trkpt>
        <trkpt lat="28.830049" lon="105.491017"><ele>568.51227</ele><time>2026-03-28T00:18:31.000Z</time></trkpt>
        <trkpt lat="28.830004" lon="105.490996"><ele>568.13184</ele><time>2026-03-28T00:18:38.000Z</time></trkpt>
        <trkpt lat="28.829968" lon="105.490946"><ele>565.94104</ele><time>2026-03-28T00:18:48.000Z</time></trkpt>
        <trkpt lat="28.829932" lon="105.490917"><ele>566.888</ele><time>2026-03-28T00:18:57.000Z</time></trkpt>
        <trkpt lat="28.829892" lon="105.490909"><ele>568.4286</ele><time>2026-03-28T00:19:02.000Z</time></trkpt>
        <trkpt lat="28.82985" lon="105.49089"><ele>569.0409</ele><time>2026-03-28T00:19:07.000Z</time></trkpt>
        <trkpt lat="28.829823" lon="105.490846"><ele>570.1179</ele><time>2026-03-28T00:19:12.000Z</time></trkpt>
        <trkpt lat="28.829783" lon="105.490808"><ele>572.17285</ele><time>2026-03-28T00:19:18.000Z</time></trkpt>
        <trkpt lat="28.829817" lon="105.490777"><ele>575.5776</ele><time>2026-03-28T00:20:03.000Z</time></trkpt>
        <trkpt lat="28.829777" lon="105.490754"><ele>573.2149</ele><time>2026-03-28T00:20:19.000Z</time></trkpt>
        <trkpt lat="28.829721" lon="105.490768"><ele>572.61835</ele><time>2026-03-28T00:20:57.000Z</time></trkpt>
        <trkpt lat="28.829767" lon="105.490762"><ele>574.8394</ele><time>2026-03-28T00:21:22.000Z</time></trkpt>
        <trkpt lat="28.829817" lon="105.490771"><ele>575.06433</ele><time>2026-03-28T00:25:49.000Z</time></trkpt>
        <trkpt lat="28.829854" lon="105.490809"><ele>574.12054</ele><time>2026-03-28T00:26:02.000Z</time></trkpt>
        <trkpt lat="28.829897" lon="105.490828"><ele>570.3077</ele><time>2026-03-28T00:26:13.000Z</time></trkpt>
        <trkpt lat="28.829939" lon="105.49085"><ele>569.1943</ele><time>2026-03-28T00:26:19.000Z</time></trkpt>
        <trkpt lat="28.82998" lon="105.490876"><ele>568.70386</ele><time>2026-03-28T00:26:24.000Z</time></trkpt>
        <trkpt lat="28.830022" lon="105.490919"><ele>568.7164</ele><time>2026-03-28T00:26:30.000Z</time></trkpt>
        <trkpt lat="28.830065" lon="105.490963"><ele>568.307</ele><time>2026-03-28T00:26:37.000Z</time></trkpt>
        <trkpt lat="28.830109" lon="105.490988"><ele>567.3053</ele><time>2026-03-28T00:26:42.000Z</time></trkpt>
        <trkpt lat="28.830137" lon="105.491026"><ele>567.2271</ele><time>2026-03-28T00:26:46.000Z</time></trkpt>
        <trkpt lat="28.830176" lon="105.491055"><ele>566.6793</ele><time>2026-03-28T00:26:50.000Z</time></trkpt>
        <trkpt lat="28.830145" lon="105.491077"><ele>566.50415</ele><time>2026-03-28T00:27:05.000Z</time></trkpt>
        <trkpt lat="28.830121" lon="105.49102"><ele>566.05927</ele><time>2026-03-28T00:27:19.000Z</time></trkpt>
        <trkpt lat="28.830103" lon="105.490966"><ele>565.9967</ele><time>2026-03-28T00:27:42.000Z</time></trkpt>
        <trkpt lat="28.830073" lon="105.490934"><ele>564.49426</ele><time>2026-03-28T00:27:50.000Z</time></trkpt>
        <trkpt lat="28.830044" lon="105.490873"><ele>564.2578</ele><time>2026-03-28T00:28:05.000Z</time></trkpt>
        <trkpt lat="28.830013" lon="105.49083"><ele>566.148</ele><time>2026-03-28T00:28:20.000Z</time></trkpt>
        <trkpt lat="28.830019" lon="105.490779"><ele>567.0661</ele><time>2026-03-28T00:28:43.000Z</time></trkpt>
        <trkpt lat="28.830008" lon="105.49074"><ele>565.58765</ele><time>2026-03-28T00:28:48.000Z</time></trkpt>
        <trkpt lat="28.829965" lon="105.490701"><ele>565.9813</ele><time>2026-03-28T00:28:55.000Z</time></trkpt>
        <trkpt lat="28.829943" lon="105.49064"><ele>566.9861</ele><time>2026-03-28T00:29:03.000Z</time></trkpt>
        <trkpt lat="28.829918" lon="105.490589"><ele>567.7626</ele><time>2026-03-28T00:29:10.000Z</time></trkpt>
        <trkpt lat="28.829907" lon="105.490533"><ele>568.2724</ele><time>2026-03-28T00:29:15.000Z</time></trkpt>
        <trkpt lat="28.829903" lon="105.490474"><ele>568.06775</ele><time>2026-03-28T00:29:20.000Z</time></trkpt>
        <trkpt lat="28.829905" lon="105.49041"><ele>566.7903</ele><time>2026-03-28T00:29:30.000Z</time></trkpt>
        <trkpt lat="28.829906" lon="105.490359"><ele>564.96686</ele><time>2026-03-28T00:29:40.000Z</time></trkpt>
        <trkpt lat="28.82992" lon="105.49031"><ele>562.8548</ele><time>2026-03-28T00:29:51.000Z</time></trkpt>
        <trkpt lat="28.829904" lon="105.490255"><ele>561.3724</ele><time>2026-03-28T00:30:09.000Z</time></trkpt>
        <trkpt lat="28.829933" lon="105.490209"><ele>560.71704</ele><time>2026-03-28T00:30:44.000Z</time></trkpt>
        <trkpt lat="28.829928" lon="105.490157"><ele>557.6106</ele><time>2026-03-28T00:30:55.000Z</time></trkpt>
        <trkpt lat="28.829932" lon="105.490098"><ele>554.1654</ele><time>2026-03-28T00:31:06.000Z</time></trkpt>
        <trkpt lat="28.829955" lon="105.490052"><ele>552.3072</ele><time>2026-03-28T00:31:18.000Z</time></trkpt>
        <trkpt lat="28.829958" lon="105.489995"><ele>549.5792</ele><time>2026-03-28T00:31:33.000Z</time></trkpt>
        <trkpt lat="28.829935" lon="105.48995"><ele>547.4307</ele><time>2026-03-28T00:31:43.000Z</time></trkpt>
        <trkpt lat="28.829896" lon="105.489928"><ele>546.8397</ele><time>2026-03-28T00:31:48.000Z</time></trkpt>
        <trkpt lat="28.829843" lon="105.489905"><ele>545.3138</ele><time>2026-03-28T00:31:54.000Z</time></trkpt>
        <trkpt lat="28.829799" lon="105.489894"><ele>545.60925</ele><time>2026-03-28T00:31:58.000Z</time></trkpt>
        <trkpt lat="28.829752" lon="105.489888"><ele>545.3294</ele><time>2026-03-28T00:32:02.000Z</time></trkpt>
        <trkpt lat="28.829687" lon="105.489897"><ele>545.03656</ele><time>2026-03-28T00:32:09.000Z</time></trkpt>
        <trkpt lat="28.829639" lon="105.489888"><ele>545.40735</ele><time>2026-03-28T00:32:16.000Z</time></trkpt>
        <trkpt lat="28.8296" lon="105.489866"><ele>544.78876</ele><time>2026-03-28T00:32:21.000Z</time></trkpt>
        <trkpt lat="28.829553" lon="105.489853"><ele>544.3103</ele><time>2026-03-28T00:32:26.000Z</time></trkpt>
        <trkpt lat="28.829505" lon="105.48983"><ele>543.4367</ele><time>2026-03-28T00:32:32.000Z</time></trkpt>
        <trkpt lat="28.829475" lon="105.489784"><ele>541.73615</ele><time>2026-03-28T00:32:38.000Z</time></trkpt>
        <trkpt lat="28.829437" lon="105.489742"><ele>540.5884</ele><time>2026-03-28T00:32:44.000Z</time></trkpt>
        <trkpt lat="28.829399" lon="105.489693"><ele>538.17554</ele><time>2026-03-28T00:32:53.000Z</time></trkpt>
        <trkpt lat="28.829381" lon="105.489645"><ele>535.9095</ele><time>2026-03-28T00:33:50.000Z</time></trkpt>
        <trkpt lat="28.829379" lon="105.489594"><ele>534.84534</ele><time>2026-03-28T00:34:02.000Z</time></trkpt>
        <trkpt lat="28.829363" lon="105.489531"><ele>533.2856</ele><time>2026-03-28T00:35:20.000Z</time></trkpt>
        <trkpt lat="28.829361" lon="105.489492"><ele>532.85626</ele><time>2026-03-28T00:35:26.000Z</time></trkpt>
        <trkpt lat="28.829349" lon="105.489432"><ele>531.18384</ele><time>2026-03-28T00:35:33.000Z</time></trkpt>
        <trkpt lat="28.829333" lon="105.489386"><ele>530.0903</ele><time>2026-03-28T00:35:37.000Z</time></trkpt>
        <trkpt lat="28.829371" lon="105.489365"><ele>529.01</ele><time>2026-03-28T00:35:53.000Z</time></trkpt>
        <trkpt lat="28.829412" lon="105.489391"><ele>529.50055</ele><time>2026-03-28T00:35:58.000Z</time></trkpt>
        <trkpt lat="28.82946" lon="105.48942"><ele>530.04297</ele><time>2026-03-28T00:36:04.000Z</time></trkpt>
        <trkpt lat="28.829508" lon="105.489437"><ele>530.3377</ele><time>2026-03-28T00:36:11.000Z</time></trkpt>
        <trkpt lat="28.829551" lon="105.489474"><ele>530.97266</ele><time>2026-03-28T00:36:19.000Z</time></trkpt>
        <trkpt lat="28.829589" lon="105.489494"><ele>531.10443</ele><time>2026-03-28T00:36:24.000Z</time></trkpt>
        <trkpt lat="28.829637" lon="105.489509"><ele>531.6185</ele><time>2026-03-28T00:36:30.000Z</time></trkpt>
        <trkpt lat="28.829598" lon="105.489494"><ele>531.4038</ele><time>2026-03-28T00:37:08.000Z</time></trkpt>
        <trkpt lat="28.829548" lon="105.489472"><ele>531.3038</ele><time>2026-03-28T00:37:13.000Z</time></trkpt>
        <trkpt lat="28.829504" lon="105.489437"><ele>530.6485</ele><time>2026-03-28T00:37:27.000Z</time></trkpt>
        <trkpt lat="28.829489" lon="105.489385"><ele>529.5776</ele><time>2026-03-28T00:37:39.000Z</time></trkpt>
        <trkpt lat="28.829484" lon="105.489331"><ele>528.9162</ele><time>2026-03-28T00:38:25.000Z</time></trkpt>
        <trkpt lat="28.82946" lon="105.489283"><ele>527.977</ele><time>2026-03-28T00:39:15.000Z</time></trkpt>
        <trkpt lat="28.829439" lon="105.489241"><ele>526.8906</ele><time>2026-03-28T00:39:21.000Z</time></trkpt>
        <trkpt lat="28.829419" lon="105.489185"><ele>525.02966</ele><time>2026-03-28T00:39:27.000Z</time></trkpt>
        <trkpt lat="28.829405" lon="105.489138"><ele>523.9083</ele><time>2026-03-28T00:39:31.000Z</time></trkpt>
        <trkpt lat="28.829393" lon="105.489084"><ele>522.7271</ele><time>2026-03-28T00:39:35.000Z</time></trkpt>
        <trkpt lat="28.829383" lon="105.489019"><ele>521.5424</ele><time>2026-03-28T00:39:40.000Z</time></trkpt>
        <trkpt lat="28.829375" lon="105.488961"><ele>520.82324</ele><time>2026-03-28T00:39:45.000Z</time></trkpt>
        <trkpt lat="28.82937" lon="105.4889"><ele>520.1292</ele><time>2026-03-28T00:39:51.000Z</time></trkpt>
        <trkpt lat="28.829367" lon="105.488846"><ele>518.6424</ele><time>2026-03-28T00:39:57.000Z</time></trkpt>
        <trkpt lat="28.829363" lon="105.488788"><ele>517.00684</ele><time>2026-03-28T00:40:04.000Z</time></trkpt>
        <trkpt lat="28.829345" lon="105.488738"><ele>515.18225</ele><time>2026-03-28T00:40:09.000Z</time></trkpt>
        <trkpt lat="28.829329" lon="105.488675"><ele>514.76465</ele><time>2026-03-28T00:40:15.000Z</time></trkpt>
        <trkpt lat="28.829312" lon="105.488615"><ele>513.4097</ele><time>2026-03-28T00:40:21.000Z</time></trkpt>
        <trkpt lat="28.829289" lon="105.488561"><ele>512.8075</ele><time>2026-03-28T00:40:26.000Z</time></trkpt>
        <trkpt lat="28.829268" lon="105.488513"><ele>512.2219</ele><time>2026-03-28T00:40:30.000Z</time></trkpt>
        <trkpt lat="28.829245" lon="105.488453"><ele>511.32388</ele><time>2026-03-28T00:40:43.000Z</time></trkpt>
        <trkpt lat="28.829241" lon="105.488405"><ele>510.2871</ele><time>2026-03-28T00:40:51.000Z</time></trkpt>
        <trkpt lat="28.829264" lon="105.488351"><ele>509.13547</ele><time>2026-03-28T00:40:57.000Z</time></trkpt>
        <trkpt lat="28.829284" lon="105.488296"><ele>507.88242</ele><time>2026-03-28T00:41:03.000Z</time></trkpt>
        <trkpt lat="28.8293" lon="105.488246"><ele>507.14203</ele><time>2026-03-28T00:41:08.000Z</time></trkpt>
        <trkpt lat="28.829307" lon="105.488186"><ele>506.05634</ele><time>2026-03-28T00:41:15.000Z</time></trkpt>
        <trkpt lat="28.829336" lon="105.488142"><ele>505.20947</ele><time>2026-03-28T00:41:21.000Z</time></trkpt>
        <trkpt lat="28.829358" lon="105.488088"><ele>503.57693</ele><time>2026-03-28T00:41:27.000Z</time></trkpt>
        <trkpt lat="28.829366" lon="105.488022"><ele>501.8516</ele><time>2026-03-28T00:41:34.000Z</time></trkpt>
        <trkpt lat="28.829366" lon="105.487962"><ele>500.78958</ele><time>2026-03-28T00:41:39.000Z</time></trkpt>
        <trkpt lat="28.829367" lon="105.487906"><ele>500.125</ele><time>2026-03-28T00:41:44.000Z</time></trkpt>
        <trkpt lat="28.829368" lon="105.48785"><ele>499.29318</ele><time>2026-03-28T00:41:49.000Z</time></trkpt>
        <trkpt lat="28.829374" lon="105.487794"><ele>498.3438</ele><time>2026-03-28T00:41:54.000Z</time></trkpt>
        <trkpt lat="28.829403" lon="105.48775"><ele>497.441</ele><time>2026-03-28T00:42:01.000Z</time></trkpt>
        <trkpt lat="28.829455" lon="105.487742"><ele>498.0219</ele><time>2026-03-28T00:42:11.000Z</time></trkpt>
        <trkpt lat="28.829428" lon="105.487773"><ele>498.92334</ele><time>2026-03-28T00:42:20.000Z</time></trkpt>
        <trkpt lat="28.829437" lon="105.487729"><ele>498.98715</ele><time>2026-03-28T00:42:45.000Z</time></trkpt>
        <trkpt lat="28.829416" lon="105.487684"><ele>497.97192</ele><time>2026-03-28T00:42:52.000Z</time></trkpt>
        <trkpt lat="28.829393" lon="105.487643"><ele>496.9309</ele><time>2026-03-28T00:42:56.000Z</time></trkpt>
        <trkpt lat="28.829351" lon="105.487599"><ele>496.8585</ele><time>2026-03-28T00:43:03.000Z</time></trkpt>
        <trkpt lat="28.829312" lon="105.487567"><ele>497.14716</ele><time>2026-03-28T00:43:08.000Z</time></trkpt>
        <trkpt lat="28.829276" lon="105.487529"><ele>496.90182</ele><time>2026-03-28T00:43:13.000Z</time></trkpt>
        <trkpt lat="28.829229" lon="105.487495"><ele>495.71854</ele><time>2026-03-28T00:43:41.000Z</time></trkpt>
        <trkpt lat="28.829206" lon="105.487476"><ele>495.50192</ele><time>2026-03-28T00:43:46.000Z</time></trkpt>
        <trkpt lat="28.829149" lon="105.487435"><ele>493.76535</ele><time>2026-03-28T00:43:56.000Z</time></trkpt>
        <trkpt lat="28.829127" lon="105.48739"><ele>493.34262</ele><time>2026-03-28T00:44:02.000Z</time></trkpt>
        <trkpt lat="28.829094" lon="105.487343"><ele>492.1573</ele><time>2026-03-28T00:44:14.000Z</time></trkpt>
        <trkpt lat="28.829073" lon="105.487299"><ele>491.3585</ele><time>2026-03-28T00:44:22.000Z</time></trkpt>
        <trkpt lat="28.82904" lon="105.487255"><ele>490.78363</ele><time>2026-03-28T00:44:35.000Z</time></trkpt>
        <trkpt lat="28.829013" lon="105.487214"><ele>490.4637</ele><time>2026-03-28T00:44:45.000Z</time></trkpt>
        <trkpt lat="28.828979" lon="105.487172"><ele>491.19922</ele><time>2026-03-28T00:44:55.000Z</time></trkpt>
        <trkpt lat="28.828961" lon="105.487123"><ele>491.37625</ele><time>2026-03-28T00:45:05.000Z</time></trkpt>
        <trkpt lat="28.828973" lon="105.487076"><ele>490.88605</ele><time>2026-03-28T00:45:12.000Z</time></trkpt>
        <trkpt lat="28.829" lon="105.487027"><ele>490.37524</ele><time>2026-03-28T00:45:18.000Z</time></trkpt>
        <trkpt lat="28.829003" lon="105.486976"><ele>489.2585</ele><time>2026-03-28T00:45:23.000Z</time></trkpt>
        <trkpt lat="28.829001" lon="105.486932"><ele>489.03046</ele><time>2026-03-28T00:45:26.000Z</time></trkpt>
        <trkpt lat="28.828973" lon="105.486865"><ele>487.79367</ele><time>2026-03-28T00:45:39.000Z</time></trkpt>
        <trkpt lat="28.828989" lon="105.486819"><ele>487.29602</ele><time>2026-03-28T00:46:07.000Z</time></trkpt>
        <trkpt lat="28.828984" lon="105.486777"><ele>486.81284</ele><time>2026-03-28T00:46:12.000Z</time></trkpt>
        <trkpt lat="28.829015" lon="105.486707"><ele>486.43677</ele><time>2026-03-28T00:46:20.000Z</time></trkpt>
        <trkpt lat="28.829047" lon="105.48666"><ele>482.83768</ele><time>2026-03-28T00:46:27.000Z</time></trkpt>
        <trkpt lat="28.829064" lon="105.486614"><ele>480.2446</ele><time>2026-03-28T00:46:32.000Z</time></trkpt>
        <trkpt lat="28.829072" lon="105.486555"><ele>477.2307</ele><time>2026-03-28T00:46:39.000Z</time></trkpt>
        <trkpt lat="28.829078" lon="105.486496"><ele>474.72168</ele><time>2026-03-28T00:46:52.000Z</time></trkpt>
        <trkpt lat="28.829084" lon="105.486447"><ele>474.09976</ele><time>2026-03-28T00:47:03.000Z</time></trkpt>
        <trkpt lat="28.829098" lon="105.486395"><ele>472.09708</ele><time>2026-03-28T00:47:11.000Z</time></trkpt>
        <trkpt lat="28.829082" lon="105.486349"><ele>470.69125</ele><time>2026-03-28T00:47:17.000Z</time></trkpt>
        <trkpt lat="28.829095" lon="105.486294"><ele>469.73224</ele><time>2026-03-28T00:47:23.000Z</time></trkpt>
        <trkpt lat="28.829101" lon="105.486249"><ele>469.13895</ele><time>2026-03-28T00:47:26.000Z</time></trkpt>
        <trkpt lat="28.829104" lon="105.486169"><ele>468.03705</ele><time>2026-03-28T00:47:32.000Z</time></trkpt>
        <trkpt lat="28.829129" lon="105.486117"><ele>467.57388</ele><time>2026-03-28T00:47:39.000Z</time></trkpt>
        <trkpt lat="28.829135" lon="105.486067"><ele>466.8251</ele><time>2026-03-28T00:47:46.000Z</time></trkpt>
        <trkpt lat="28.829133" lon="105.486012"><ele>466.44824</ele><time>2026-03-28T00:47:54.000Z</time></trkpt>
        <trkpt lat="28.829124" lon="105.48595"><ele>466.54608</ele><time>2026-03-28T00:48:05.000Z</time></trkpt>
        <trkpt lat="28.829104" lon="105.485899"><ele>466.34113</ele><time>2026-03-28T00:48:13.000Z</time></trkpt>
        <trkpt lat="28.829079" lon="105.485849"><ele>466.27988</ele><time>2026-03-28T00:48:23.000Z</time></trkpt>
        <trkpt lat="28.829062" lon="105.485798"><ele>466.40173</ele><time>2026-03-28T00:48:31.000Z</time></trkpt>
        <trkpt lat="28.829036" lon="105.485749"><ele>467.23776</ele><time>2026-03-28T00:48:39.000Z</time></trkpt>
        <trkpt lat="28.828987" lon="105.485715"><ele>466.89865</ele><time>2026-03-28T00:49:01.000Z</time></trkpt>
        <trkpt lat="28.828939" lon="105.485706"><ele>467.1973</ele><time>2026-03-28T00:49:16.000Z</time></trkpt>
        <trkpt lat="28.828898" lon="105.485696"><ele>467.2199</ele><time>2026-03-28T00:49:22.000Z</time></trkpt>
        <trkpt lat="28.828848" lon="105.485685"><ele>467.59235</ele><time>2026-03-28T00:49:31.000Z</time></trkpt>
        <trkpt lat="28.828808" lon="105.485688"><ele>468.05588</ele><time>2026-03-28T00:49:36.000Z</time></trkpt>
        <trkpt lat="28.828756" lon="105.485694"><ele>467.9883</ele><time>2026-03-28T00:49:42.000Z</time></trkpt>
        <trkpt lat="28.8287" lon="105.485702"><ele>466.84286</ele><time>2026-03-28T00:49:53.000Z</time></trkpt>
        <trkpt lat="28.828655" lon="105.485697"><ele>467.28067</ele><time>2026-03-28T00:50:00.000Z</time></trkpt>
        <trkpt lat="28.828608" lon="105.485675"><ele>467.42368</ele><time>2026-03-28T00:50:07.000Z</time></trkpt>
        <trkpt lat="28.82856" lon="105.485648"><ele>467.0552</ele><time>2026-03-28T00:50:13.000Z</time></trkpt>
        <trkpt lat="28.828517" lon="105.48561"><ele>466.82693</ele><time>2026-03-28T00:50:21.000Z</time></trkpt>
        <trkpt lat="28.828497" lon="105.485568"><ele>467.1167</ele><time>2026-03-28T00:50:25.000Z</time></trkpt>
        <trkpt lat="28.828477" lon="105.485508"><ele>467.0152</ele><time>2026-03-28T00:50:31.000Z</time></trkpt>
        <trkpt lat="28.828461" lon="105.485454"><ele>467.27454</ele><time>2026-03-28T00:50:36.000Z</time></trkpt>
        <trkpt lat="28.828435" lon="105.485406"><ele>466.63885</ele><time>2026-03-28T00:50:41.000Z</time></trkpt>
        <trkpt lat="28.828427" lon="105.485351"><ele>466.4736</ele><time>2026-03-28T00:50:46.000Z</time></trkpt>
        <trkpt lat="28.828417" lon="105.485291"><ele>467.43396</ele><time>2026-03-28T00:50:53.000Z</time></trkpt>
        <trkpt lat="28.828422" lon="105.485238"><ele>467.53104</ele><time>2026-03-28T00:51:25.000Z</time></trkpt>
        <trkpt lat="28.828414" lon="105.485205"><ele>468.36063</ele><time>2026-03-28T00:51:30.000Z</time></trkpt>
        <trkpt lat="28.828387" lon="105.485144"><ele>468.6372</ele><time>2026-03-28T00:51:54.000Z</time></trkpt>
        <trkpt lat="28.828355" lon="105.485108"><ele>468.95026</ele><time>2026-03-28T00:52:09.000Z</time></trkpt>
        <trkpt lat="28.828329" lon="105.485058"><ele>469.1605</ele><time>2026-03-28T00:52:18.000Z</time></trkpt>
        <trkpt lat="28.82831" lon="105.485007"><ele>469.17813</ele><time>2026-03-28T00:52:24.000Z</time></trkpt>
        <trkpt lat="28.8283" lon="105.48495"><ele>469.22192</ele><time>2026-03-28T00:52:30.000Z</time></trkpt>
        <trkpt lat="28.82831" lon="105.484886"><ele>469.6398</ele><time>2026-03-28T00:52:37.000Z</time></trkpt>
        <trkpt lat="28.828324" lon="105.484828"><ele>469.4028</ele><time>2026-03-28T00:52:42.000Z</time></trkpt>
        <trkpt lat="28.828335" lon="105.484774"><ele>469.45636</ele><time>2026-03-28T00:52:47.000Z</time></trkpt>
        <trkpt lat="28.828352" lon="105.484715"><ele>469.58008</ele><time>2026-03-28T00:52:56.000Z</time></trkpt>
        <trkpt lat="28.828389" lon="105.48471"><ele>470.04456</ele><time>2026-03-28T00:53:01.000Z</time></trkpt>
        <trkpt lat="28.828441" lon="105.484683"><ele>469.17673</ele><time>2026-03-28T00:53:10.000Z</time></trkpt>
        <trkpt lat="28.82848" lon="105.484652"><ele>469.08884</ele><time>2026-03-28T00:53:15.000Z</time></trkpt>
        <trkpt lat="28.828535" lon="105.484636"><ele>469.51712</ele><time>2026-03-28T00:53:27.000Z</time></trkpt>
        <trkpt lat="28.828576" lon="105.484624"><ele>470.34912</ele><time>2026-03-28T00:53:32.000Z</time></trkpt>
        <trkpt lat="28.828627" lon="105.48461"><ele>469.87878</ele><time>2026-03-28T00:53:39.000Z</time></trkpt>
        <trkpt lat="28.828665" lon="105.484575"><ele>469.42642</ele><time>2026-03-28T00:53:46.000Z</time></trkpt>
        <trkpt lat="28.828715" lon="105.484565"><ele>468.45956</ele><time>2026-03-28T00:53:59.000Z</time></trkpt>
        <trkpt lat="28.828757" lon="105.484555"><ele>468.15402</ele><time>2026-03-28T00:54:06.000Z</time></trkpt>
        <trkpt lat="28.828809" lon="105.484539"><ele>467.68378</ele><time>2026-03-28T00:54:15.000Z</time></trkpt>
        <trkpt lat="28.828855" lon="105.484521"><ele>466.70535</ele><time>2026-03-28T00:54:25.000Z</time></trkpt>
        <trkpt lat="28.82889" lon="105.484489"><ele>467.17966</ele><time>2026-03-28T00:54:38.000Z</time></trkpt>
        <trkpt lat="28.828936" lon="105.484461"><ele>465.75165</ele><time>2026-03-28T00:54:47.000Z</time></trkpt>
        <trkpt lat="28.828977" lon="105.484433"><ele>464.81088</ele><time>2026-03-28T00:54:54.000Z</time></trkpt>
        <trkpt lat="28.829017" lon="105.484406"><ele>463.52094</ele><time>2026-03-28T00:55:02.000Z</time></trkpt>
        <trkpt lat="28.829064" lon="105.484382"><ele>462.48392</ele><time>2026-03-28T00:55:08.000Z</time></trkpt>
        <trkpt lat="28.829117" lon="105.484378"><ele>460.88</ele><time>2026-03-28T00:55:18.000Z</time></trkpt>
        <trkpt lat="28.829163" lon="105.48439"><ele>458.9845</ele><time>2026-03-28T00:55:28.000Z</time></trkpt>
        <trkpt lat="28.829204" lon="105.484412"><ele>457.51123</ele><time>2026-03-28T00:55:36.000Z</time></trkpt>
        <trkpt lat="28.829252" lon="105.484427"><ele>456.7615</ele><time>2026-03-28T00:55:46.000Z</time></trkpt>
        <trkpt lat="28.82928" lon="105.484465"><ele>456.04752</ele><time>2026-03-28T00:55:54.000Z</time></trkpt>
        <trkpt lat="28.829324" lon="105.48447"><ele>456.74252</ele><time>2026-03-28T00:56:02.000Z</time></trkpt>
        <trkpt lat="28.829348" lon="105.484423"><ele>457.0471</ele><time>2026-03-28T00:56:10.000Z</time></trkpt>
        <trkpt lat="28.829387" lon="105.484381"><ele>455.55756</ele><time>2026-03-28T00:56:30.000Z</time></trkpt>
        <trkpt lat="28.829416" lon="105.484348"><ele>454.78314</ele><time>2026-03-28T00:56:40.000Z</time></trkpt>
        <trkpt lat="28.829464" lon="105.484322"><ele>452.8085</ele><time>2026-03-28T00:56:52.000Z</time></trkpt>
        <trkpt lat="28.829509" lon="105.484299"><ele>451.2968</ele><time>2026-03-28T00:57:01.000Z</time></trkpt>
        <trkpt lat="28.829556" lon="105.4843"><ele>450.4837</ele><time>2026-03-28T00:57:10.000Z</time></trkpt>
        <trkpt lat="28.829602" lon="105.484282"><ele>449.7615</ele><time>2026-03-28T00:57:23.000Z</time></trkpt>
        <trkpt lat="28.829647" lon="105.484268"><ele>447.9029</ele><time>2026-03-28T00:57:33.000Z</time></trkpt>
        <trkpt lat="28.829695" lon="105.484251"><ele>446.70764</ele><time>2026-03-28T00:57:42.000Z</time></trkpt>
        <trkpt lat="28.829744" lon="105.484251"><ele>444.48157</ele><time>2026-03-28T00:57:51.000Z</time></trkpt>
        <trkpt lat="28.829792" lon="105.484236"><ele>442.9522</ele><time>2026-03-28T00:58:02.000Z</time></trkpt>
        <trkpt lat="28.829838" lon="105.484212"><ele>441.84277</ele><time>2026-03-28T00:58:12.000Z</time></trkpt>
        <trkpt lat="28.829881" lon="105.48418"><ele>441.7153</ele><time>2026-03-28T00:58:20.000Z</time></trkpt>
        <trkpt lat="28.829928" lon="105.484185"><ele>439.78128</ele><time>2026-03-28T00:58:30.000Z</time></trkpt>
        <trkpt lat="28.829979" lon="105.484194"><ele>438.52142</ele><time>2026-03-28T00:58:43.000Z</time></trkpt>
        <trkpt lat="28.830025" lon="105.484167"><ele>436.72336</ele><time>2026-03-28T00:59:04.000Z</time></trkpt>
        <trkpt lat="28.830076" lon="105.48415"><ele>435.06537</ele><time>2026-03-28T01:00:05.000Z</time></trkpt>
        <trkpt lat="28.830118" lon="105.48413"><ele>433.73022</ele><time>2026-03-28T01:00:16.000Z</time></trkpt>
        <trkpt lat="28.830166" lon="105.484121"><ele>430.95844</ele><time>2026-03-28T01:00:45.000Z</time></trkpt>
        <trkpt lat="28.830203" lon="105.484095"><ele>427.9579</ele><time>2026-03-28T01:00:54.000Z</time></trkpt>
        <trkpt lat="28.830253" lon="105.484071"><ele>426.90622</ele><time>2026-03-28T01:01:00.000Z</time></trkpt>
        <trkpt lat="28.8303" lon="105.48404"><ele>425.70477</ele><time>2026-03-28T01:01:09.000Z</time></trkpt>
        <trkpt lat="28.830346" lon="105.484012"><ele>426.22238</ele><time>2026-03-28T01:01:19.000Z</time></trkpt>
        <trkpt lat="28.830401" lon="105.484012"><ele>423.12213</ele><time>2026-03-28T01:01:33.000Z</time></trkpt>
        <trkpt lat="28.830441" lon="105.483996"><ele>422.75262</ele><time>2026-03-28T01:01:42.000Z</time></trkpt>
        <trkpt lat="28.830486" lon="105.483969"><ele>422.50388</ele><time>2026-03-28T01:01:50.000Z</time></trkpt>
        <trkpt lat="28.830532" lon="105.483947"><ele>421.0861</ele><time>2026-03-28T01:01:59.000Z</time></trkpt>
        <trkpt lat="28.830577" lon="105.483931"><ele>419.37952</ele><time>2026-03-28T01:02:12.000Z</time></trkpt>
        <trkpt lat="28.830626" lon="105.483929"><ele>418.74472</ele><time>2026-03-28T01:02:21.000Z</time></trkpt>
        <trkpt lat="28.830672" lon="105.48395"><ele>416.5038</ele><time>2026-03-28T01:02:34.000Z</time></trkpt>
        <trkpt lat="28.830708" lon="105.483982"><ele>416.24362</ele><time>2026-03-28T01:02:42.000Z</time></trkpt>
        <trkpt lat="28.830718" lon="105.484038"><ele>414.8615</ele><time>2026-03-28T01:03:01.000Z</time></trkpt>
        <trkpt lat="28.830727" lon="105.48409"><ele>413.715</ele><time>2026-03-28T01:03:14.000Z</time></trkpt>
        <trkpt lat="28.830742" lon="105.48414"><ele>413.46014</ele><time>2026-03-28T01:03:22.000Z</time></trkpt>
        <trkpt lat="28.830747" lon="105.484192"><ele>413.23022</ele><time>2026-03-28T01:03:30.000Z</time></trkpt>
        <trkpt lat="28.830757" lon="105.484246"><ele>412.76437</ele><time>2026-03-28T01:03:39.000Z</time></trkpt>
        <trkpt lat="28.830773" lon="105.484299"><ele>412.53757</ele><time>2026-03-28T01:03:48.000Z</time></trkpt>
        <trkpt lat="28.830784" lon="105.484347"><ele>411.89752</ele><time>2026-03-28T01:03:54.000Z</time></trkpt>
        <trkpt lat="28.830798" lon="105.484405"><ele>410.51807</ele><time>2026-03-28T01:04:03.000Z</time></trkpt>
        <trkpt lat="28.830818" lon="105.484457"><ele>409.32504</ele><time>2026-03-28T01:04:10.000Z</time></trkpt>
        <trkpt lat="28.830837" lon="105.484508"><ele>408.71848</ele><time>2026-03-28T01:04:17.000Z</time></trkpt>
        <trkpt lat="28.830872" lon="105.484549"><ele>407.93622</ele><time>2026-03-28T01:04:44.000Z</time></trkpt>
        <trkpt lat="28.83089" lon="105.484588"><ele>408.14468</ele><time>2026-03-28T01:04:51.000Z</time></trkpt>
        <trkpt lat="28.830911" lon="105.484643"><ele>406.92535</ele><time>2026-03-28T01:04:59.000Z</time></trkpt>
        <trkpt lat="28.830956" lon="105.484674"><ele>406.4735</ele><time>2026-03-28T01:05:06.000Z</time></trkpt>
        <trkpt lat="28.830983" lon="105.484714"><ele>405.51846</ele><time>2026-03-28T01:05:11.000Z</time></trkpt>
        <trkpt lat="28.83102" lon="105.484769"><ele>403.41254</ele><time>2026-03-28T01:05:33.000Z</time></trkpt>
        <trkpt lat="28.83105" lon="105.484812"><ele>400.76627</ele><time>2026-03-28T01:06:01.000Z</time></trkpt>
        <trkpt lat="28.831089" lon="105.484796"><ele>400.26874</ele><time>2026-03-28T01:06:10.000Z</time></trkpt>
        <trkpt lat="28.831085" lon="105.484747"><ele>399.67062</ele><time>2026-03-28T01:06:16.000Z</time></trkpt>
        <trkpt lat="28.831076" lon="105.484684"><ele>399.3795</ele><time>2026-03-28T01:06:23.000Z</time></trkpt>
        <trkpt lat="28.831076" lon="105.484627"><ele>400.56775</ele><time>2026-03-28T01:07:12.000Z</time></trkpt>
        <trkpt lat="28.831069" lon="105.484582"><ele>400.28198</ele><time>2026-03-28T01:07:24.000Z</time></trkpt>
        <trkpt lat="28.83106" lon="105.48452"><ele>398.79214</ele><time>2026-03-28T01:08:03.000Z</time></trkpt>
        <trkpt lat="28.831047" lon="105.484472"><ele>398.81537</ele><time>2026-03-28T01:08:10.000Z</time></trkpt>
        <trkpt lat="28.831036" lon="105.484405"><ele>399.22916</ele><time>2026-03-28T01:08:22.000Z</time></trkpt>
        <trkpt lat="28.831047" lon="105.484352"><ele>398.27353</ele><time>2026-03-28T01:09:10.000Z</time></trkpt>
        <trkpt lat="28.831046" lon="105.484295"><ele>399.2629</ele><time>2026-03-28T01:09:28.000Z</time></trkpt>
        <trkpt lat="28.831041" lon="105.48424"><ele>399.06265</ele><time>2026-03-28T01:09:38.000Z</time></trkpt>
        <trkpt lat="28.831061" lon="105.48419"><ele>397.57727</ele><time>2026-03-28T01:09:52.000Z</time></trkpt>
        <trkpt lat="28.831098" lon="105.484153"><ele>397.153</ele><time>2026-03-28T01:10:06.000Z</time></trkpt>
        <trkpt lat="28.831129" lon="105.484111"><ele>394.9994</ele><time>2026-03-28T01:10:15.000Z</time></trkpt>
        <trkpt lat="28.831158" lon="105.484066"><ele>393.65744</ele><time>2026-03-28T01:10:24.000Z</time></trkpt>
        <trkpt lat="28.831185" lon="105.484023"><ele>391.6831</ele><time>2026-03-28T01:10:33.000Z</time></trkpt>
        <trkpt lat="28.831217" lon="105.483984"><ele>389.59668</ele><time>2026-03-28T01:10:42.000Z</time></trkpt>
        <trkpt lat="28.831245" lon="105.483939"><ele>387.95874</ele><time>2026-03-28T01:10:49.000Z</time></trkpt>
        <trkpt lat="28.831274" lon="105.48389"><ele>387.0889</ele><time>2026-03-28T01:10:56.000Z</time></trkpt>
        <trkpt lat="28.83131" lon="105.483855"><ele>385.58435</ele><time>2026-03-28T01:11:03.000Z</time></trkpt>
        <trkpt lat="28.83134" lon="105.483809"><ele>383.69138</ele><time>2026-03-28T01:11:09.000Z</time></trkpt>
        <trkpt lat="28.831387" lon="105.483783"><ele>382.08975</ele><time>2026-03-28T01:11:18.000Z</time></trkpt>
        <trkpt lat="28.831427" lon="105.483746"><ele>380.2296</ele><time>2026-03-28T01:11:28.000Z</time></trkpt>
        <trkpt lat="28.831455" lon="105.483703"><ele>378.3408</ele><time>2026-03-28T01:11:34.000Z</time></trkpt>
        <trkpt lat="28.831502" lon="105.483684"><ele>377.826</ele><time>2026-03-28T01:11:40.000Z</time></trkpt>
        <trkpt lat="28.831544" lon="105.483651"><ele>377.09274</ele><time>2026-03-28T01:11:46.000Z</time></trkpt>
        <trkpt lat="28.831587" lon="105.48361"><ele>375.84143</ele><time>2026-03-28T01:11:53.000Z</time></trkpt>
        <trkpt lat="28.831629" lon="105.483587"><ele>374.60468</ele><time>2026-03-28T01:11:59.000Z</time></trkpt>
        <trkpt lat="28.831683" lon="105.483564"><ele>372.16083</ele><time>2026-03-28T01:12:14.000Z</time></trkpt>
        <trkpt lat="28.831726" lon="105.483553"><ele>371.24155</ele><time>2026-03-28T01:12:21.000Z</time></trkpt>
        <trkpt lat="28.831778" lon="105.483536"><ele>370.27255</ele><time>2026-03-28T01:12:27.000Z</time></trkpt>
        <trkpt lat="28.831832" lon="105.483536"><ele>369.16547</ele><time>2026-03-28T01:12:33.000Z</time></trkpt>
        <trkpt lat="28.831883" lon="105.483539"><ele>367.9746</ele><time>2026-03-28T01:12:39.000Z</time></trkpt>
        <trkpt lat="28.831925" lon="105.483524"><ele>367.39395</ele><time>2026-03-28T01:12:44.000Z</time></trkpt>
        <trkpt lat="28.831974" lon="105.483513"><ele>366.9785</ele><time>2026-03-28T01:12:48.000Z</time></trkpt>
        <trkpt lat="28.832024" lon="105.483495"><ele>366.56036</ele><time>2026-03-28T01:12:53.000Z</time></trkpt>
        <trkpt lat="28.832068" lon="105.483473"><ele>366.3068</ele><time>2026-03-28T01:12:58.000Z</time></trkpt>
        <trkpt lat="28.832114" lon="105.483485"><ele>366.5486</ele><time>2026-03-28T01:13:05.000Z</time></trkpt>
        <trkpt lat="28.832151" lon="105.483529"><ele>366.57162</ele><time>2026-03-28T01:13:13.000Z</time></trkpt>
        <trkpt lat="28.832186" lon="105.483551"><ele>366.4809</ele><time>2026-03-28T01:13:17.000Z</time></trkpt>
        <trkpt lat="28.832232" lon="105.483591"><ele>365.5096</ele><time>2026-03-28T01:13:22.000Z</time></trkpt>
        <trkpt lat="28.832281" lon="105.483615"><ele>364.9666</ele><time>2026-03-28T01:13:27.000Z</time></trkpt>
        <trkpt lat="28.832335" lon="105.483621"><ele>365.27542</ele><time>2026-03-28T01:13:33.000Z</time></trkpt>
        <trkpt lat="28.832386" lon="105.483623"><ele>366.0288</ele><time>2026-03-28T01:13:39.000Z</time></trkpt>
        <trkpt lat="28.832437" lon="105.483601"><ele>365.89734</ele><time>2026-03-28T01:13:48.000Z</time></trkpt>
        <trkpt lat="28.832477" lon="105.483581"><ele>365.30847</ele><time>2026-03-28T01:13:53.000Z</time></trkpt>
        <trkpt lat="28.832524" lon="105.483558"><ele>364.64566</ele><time>2026-03-28T01:13:59.000Z</time></trkpt>
        <trkpt lat="28.832569" lon="105.483531"><ele>364.34512</ele><time>2026-03-28T01:14:05.000Z</time></trkpt>
        <trkpt lat="28.832616" lon="105.483506"><ele>364.3182</ele><time>2026-03-28T01:14:10.000Z</time></trkpt>
        <trkpt lat="28.832644" lon="105.483465"><ele>364.67014</ele><time>2026-03-28T01:14:15.000Z</time></trkpt>
        <trkpt lat="28.832689" lon="105.483427"><ele>365.15735</ele><time>2026-03-28T01:14:42.000Z</time></trkpt>
        <trkpt lat="28.832731" lon="105.483437"><ele>365.50302</ele><time>2026-03-28T01:14:54.000Z</time></trkpt>
        <trkpt lat="28.832787" lon="105.483412"><ele>366.21155</ele><time>2026-03-28T01:15:05.000Z</time></trkpt>
        <trkpt lat="28.832826" lon="105.483388"><ele>366.57892</ele><time>2026-03-28T01:15:12.000Z</time></trkpt>
        <trkpt lat="28.832863" lon="105.483364"><ele>367.0529</ele><time>2026-03-28T01:15:16.000Z</time></trkpt>
        <trkpt lat="28.832914" lon="105.483331"><ele>365.159</ele><time>2026-03-28T01:15:27.000Z</time></trkpt>
        <trkpt lat="28.832945" lon="105.483286"><ele>362.67194</ele><time>2026-03-28T01:15:50.000Z</time></trkpt>
        <trkpt lat="28.832914" lon="105.483326"><ele>364.23587</ele><time>2026-03-28T01:16:27.000Z</time></trkpt>
        <trkpt lat="28.832953" lon="105.483358"><ele>364.12323</ele><time>2026-03-28T01:17:21.000Z</time></trkpt>
        <trkpt lat="28.832984" lon="105.483383"><ele>364.68777</ele><time>2026-03-28T01:17:27.000Z</time></trkpt>
        <trkpt lat="28.833005" lon="105.483442"><ele>364.7888</ele><time>2026-03-28T01:17:33.000Z</time></trkpt>
        <trkpt lat="28.833016" lon="105.483501"><ele>365.7499</ele><time>2026-03-28T01:17:38.000Z</time></trkpt>
        <trkpt lat="28.833036" lon="105.483555"><ele>365.39426</ele><time>2026-03-28T01:17:43.000Z</time></trkpt>
        <trkpt lat="28.833058" lon="105.483611"><ele>365.14084</ele><time>2026-03-28T01:17:48.000Z</time></trkpt>
        <trkpt lat="28.833065" lon="105.483669"><ele>365.7007</ele><time>2026-03-28T01:17:53.000Z</time></trkpt>
        <trkpt lat="28.833057" lon="105.483718"><ele>365.94046</ele><time>2026-03-28T01:17:57.000Z</time></trkpt>
        <trkpt lat="28.833054" lon="105.483775"><ele>366.33072</ele><time>2026-03-28T01:18:02.000Z</time></trkpt>
        <trkpt lat="28.833052" lon="105.483834"><ele>366.16547</ele><time>2026-03-28T01:18:08.000Z</time></trkpt>
        <trkpt lat="28.833059" lon="105.483888"><ele>366.43277</ele><time>2026-03-28T01:18:13.000Z</time></trkpt>
        <trkpt lat="28.833084" lon="105.483944"><ele>366.52548</ele><time>2026-03-28T01:18:20.000Z</time></trkpt>
        <trkpt lat="28.833109" lon="105.483987"><ele>366.42648</ele><time>2026-03-28T01:18:25.000Z</time></trkpt>
        <trkpt lat="28.833124" lon="105.484046"><ele>366.08087</ele><time>2026-03-28T01:18:35.000Z</time></trkpt>
        <trkpt lat="28.833145" lon="105.484095"><ele>365.91418</ele><time>2026-03-28T01:18:43.000Z</time></trkpt>
        <trkpt lat="28.833159" lon="105.484156"><ele>364.6673</ele><time>2026-03-28T01:18:54.000Z</time></trkpt>
        <trkpt lat="28.833193" lon="105.484187"><ele>365.3496</ele><time>2026-03-28T01:19:00.000Z</time></trkpt>
        <trkpt lat="28.833219" lon="105.484231"><ele>365.10123</ele><time>2026-03-28T01:19:04.000Z</time></trkpt>
        <trkpt lat="28.833252" lon="105.484266"><ele>364.436</ele><time>2026-03-28T01:19:08.000Z</time></trkpt>
        <trkpt lat="28.833294" lon="105.484307"><ele>364.57758</ele><time>2026-03-28T01:19:15.000Z</time></trkpt>
        <trkpt lat="28.833331" lon="105.484341"><ele>364.91135</ele><time>2026-03-28T01:19:21.000Z</time></trkpt>
        <trkpt lat="28.833366" lon="105.484372"><ele>365.04645</ele><time>2026-03-28T01:19:26.000Z</time></trkpt>
        <trkpt lat="28.833406" lon="105.484408"><ele>365.08597</ele><time>2026-03-28T01:19:33.000Z</time></trkpt>
        <trkpt lat="28.833439" lon="105.484452"><ele>365.21606</ele><time>2026-03-28T01:19:39.000Z</time></trkpt>
        <trkpt lat="28.833478" lon="105.484498"><ele>364.9084</ele><time>2026-03-28T01:19:45.000Z</time></trkpt>
        <trkpt lat="28.833509" lon="105.484539"><ele>365.08063</ele><time>2026-03-28T01:19:50.000Z</time></trkpt>
        <trkpt lat="28.833553" lon="105.484572"><ele>365.63782</ele><time>2026-03-28T01:19:56.000Z</time></trkpt>
        <trkpt lat="28.833596" lon="105.484583"><ele>365.5912</ele><time>2026-03-28T01:20:01.000Z</time></trkpt>
        <trkpt lat="28.833645" lon="105.484584"><ele>365.1393</ele><time>2026-03-28T01:20:06.000Z</time></trkpt>
        <trkpt lat="28.833698" lon="105.484585"><ele>365.53964</ele><time>2026-03-28T01:20:12.000Z</time></trkpt>
        <trkpt lat="28.833748" lon="105.484565"><ele>364.63028</ele><time>2026-03-28T01:20:18.000Z</time></trkpt>
        <trkpt lat="28.833796" lon="105.484543"><ele>365.38702</ele><time>2026-03-28T01:20:25.000Z</time></trkpt>
        <trkpt lat="28.833839" lon="105.484512"><ele>366.05563</ele><time>2026-03-28T01:20:35.000Z</time></trkpt>
        <trkpt lat="28.83388" lon="105.484491"><ele>366.07007</ele><time>2026-03-28T01:20:39.000Z</time></trkpt>
        <trkpt lat="28.833925" lon="105.484456"><ele>365.71017</ele><time>2026-03-28T01:20:47.000Z</time></trkpt>
        <trkpt lat="28.83396" lon="105.48443"><ele>365.47696</ele><time>2026-03-28T01:20:52.000Z</time></trkpt>
        <trkpt lat="28.834005" lon="105.484394"><ele>366.19278</ele><time>2026-03-28T01:20:58.000Z</time></trkpt>
        <trkpt lat="28.83405" lon="105.484364"><ele>366.62372</ele><time>2026-03-28T01:21:11.000Z</time></trkpt>
        <trkpt lat="28.834085" lon="105.484323"><ele>366.46716</ele><time>2026-03-28T01:21:49.000Z</time></trkpt>
        <trkpt lat="28.83411" lon="105.484278"><ele>366.17972</ele><time>2026-03-28T01:22:00.000Z</time></trkpt>
        <trkpt lat="28.834152" lon="105.484248"><ele>365.7272</ele><time>2026-03-28T01:22:09.000Z</time></trkpt>
        <trkpt lat="28.834191" lon="105.484214"><ele>365.71716</ele><time>2026-03-28T01:22:19.000Z</time></trkpt>
        <trkpt lat="28.834233" lon="105.48419"><ele>366.37387</ele><time>2026-03-28T01:22:27.000Z</time></trkpt>
        <trkpt lat="28.834284" lon="105.484168"><ele>366.8268</ele><time>2026-03-28T01:22:50.000Z</time></trkpt>
        <trkpt lat="28.834309" lon="105.484127"><ele>367.45853</ele><time>2026-03-28T01:22:56.000Z</time></trkpt>
        <trkpt lat="28.834346" lon="105.484087"><ele>367.2572</ele><time>2026-03-28T01:23:02.000Z</time></trkpt>
        <trkpt lat="28.834385" lon="105.484048"><ele>367.1095</ele><time>2026-03-28T01:23:08.000Z</time></trkpt>
        <trkpt lat="28.834424" lon="105.484013"><ele>366.81348</ele><time>2026-03-28T01:23:14.000Z</time></trkpt>
        <trkpt lat="28.834456" lon="105.483976"><ele>367.1295</ele><time>2026-03-28T01:23:19.000Z</time></trkpt>
        <trkpt lat="28.834501" lon="105.483942"><ele>366.49066</ele><time>2026-03-28T01:23:26.000Z</time></trkpt>
        <trkpt lat="28.834533" lon="105.483902"><ele>366.24057</ele><time>2026-03-28T01:23:31.000Z</time></trkpt>
        <trkpt lat="28.834575" lon="105.48386"><ele>365.8427</ele><time>2026-03-28T01:23:40.000Z</time></trkpt>
        <trkpt lat="28.834604" lon="105.483821"><ele>365.2443</ele><time>2026-03-28T01:23:47.000Z</time></trkpt>
        <trkpt lat="28.83463" lon="105.483774"><ele>365.0614</ele><time>2026-03-28T01:23:53.000Z</time></trkpt>
        <trkpt lat="28.834636" lon="105.483722"><ele>364.959</ele><time>2026-03-28T01:23:58.000Z</time></trkpt>
        <trkpt lat="28.834658" lon="105.48367"><ele>363.89395</ele><time>2026-03-28T01:24:25.000Z</time></trkpt>
        <trkpt lat="28.83465" lon="105.483632"><ele>363.87405</ele><time>2026-03-28T01:24:32.000Z</time></trkpt>
        <trkpt lat="28.834654" lon="105.483572"><ele>363.73248</ele><time>2026-03-28T01:24:38.000Z</time></trkpt>
        <trkpt lat="28.834675" lon="105.483514"><ele>363.51846</ele><time>2026-03-28T01:24:52.000Z</time></trkpt>
        <trkpt lat="28.834688" lon="105.483468"><ele>363.96942</ele><time>2026-03-28T01:24:59.000Z</time></trkpt>
        <trkpt lat="28.834718" lon="105.483423"><ele>364.25504</ele><time>2026-03-28T01:25:06.000Z</time></trkpt>
        <trkpt lat="28.834758" lon="105.483398"><ele>363.94125</ele><time>2026-03-28T01:25:11.000Z</time></trkpt>
        <trkpt lat="28.83481" lon="105.483374"><ele>364.17853</ele><time>2026-03-28T01:25:19.000Z</time></trkpt>
        <trkpt lat="28.834855" lon="105.483375"><ele>364.05276</ele><time>2026-03-28T01:25:26.000Z</time></trkpt>
        <trkpt lat="28.834901" lon="105.48338"><ele>364.46182</ele><time>2026-03-28T01:25:31.000Z</time></trkpt>
        <trkpt lat="28.83495" lon="105.48339"><ele>364.70264</ele><time>2026-03-28T01:25:36.000Z</time></trkpt>
        <trkpt lat="28.835001" lon="105.483379"><ele>365.81082</ele><time>2026-03-28T01:25:43.000Z</time></trkpt>
        <trkpt lat="28.83504" lon="105.483341"><ele>366.4014</ele><time>2026-03-28T01:26:00.000Z</time></trkpt>
        <trkpt lat="28.835072" lon="105.483357"><ele>366.45905</ele><time>2026-03-28T01:26:05.000Z</time></trkpt>
        <trkpt lat="28.835125" lon="105.483369"><ele>365.28616</ele><time>2026-03-28T01:26:14.000Z</time></trkpt>
        <trkpt lat="28.83517" lon="105.483367"><ele>364.42688</ele><time>2026-03-28T01:26:20.000Z</time></trkpt>
        <trkpt lat="28.835212" lon="105.483348"><ele>363.2559</ele><time>2026-03-28T01:26:25.000Z</time></trkpt>
        <trkpt lat="28.83525" lon="105.483309"><ele>361.97812</ele><time>2026-03-28T01:26:31.000Z</time></trkpt>
        <trkpt lat="28.835287" lon="105.483277"><ele>362.07993</ele><time>2026-03-28T01:26:36.000Z</time></trkpt>
        <trkpt lat="28.835328" lon="105.483234"><ele>361.15573</ele><time>2026-03-28T01:26:45.000Z</time></trkpt>
        <trkpt lat="28.835376" lon="105.483228"><ele>360.51736</ele><time>2026-03-28T01:26:55.000Z</time></trkpt>
        <trkpt lat="28.835403" lon="105.483188"><ele>358.63788</ele><time>2026-03-28T01:27:08.000Z</time></trkpt>
        <trkpt lat="28.835435" lon="105.483143"><ele>359.0838</ele><time>2026-03-28T01:27:21.000Z</time></trkpt>
        <trkpt lat="28.835465" lon="105.483107"><ele>358.93878</ele><time>2026-03-28T01:27:27.000Z</time></trkpt>
        <trkpt lat="28.835501" lon="105.48306"><ele>358.36523</ele><time>2026-03-28T01:27:36.000Z</time></trkpt>
        <trkpt lat="28.835531" lon="105.483022"><ele>358.2943</ele><time>2026-03-28T01:27:43.000Z</time></trkpt>
        <trkpt lat="28.835564" lon="105.48297"><ele>358.3398</ele><time>2026-03-28T01:27:54.000Z</time></trkpt>
        <trkpt lat="28.835577" lon="105.482927"><ele>358.3055</ele><time>2026-03-28T01:28:00.000Z</time></trkpt>
        <trkpt lat="28.835593" lon="105.482879"><ele>357.897</ele><time>2026-03-28T01:28:05.000Z</time></trkpt>
        <trkpt lat="28.835636" lon="105.482842"><ele>358.24722</ele><time>2026-03-28T01:28:15.000Z</time></trkpt>
        <trkpt lat="28.835699" lon="105.482833"><ele>355.1594</ele><time>2026-03-28T01:28:29.000Z</time></trkpt>
        <trkpt lat="28.835695" lon="105.482887"><ele>356.133</ele><time>2026-03-28T01:29:41.000Z</time></trkpt>
        <trkpt lat="28.835704" lon="105.48294"><ele>355.2821</ele><time>2026-03-28T01:30:44.000Z</time></trkpt>
        <trkpt lat="28.835704" lon="105.482988"><ele>354.11804</ele><time>2026-03-28T01:30:51.000Z</time></trkpt>
        <trkpt lat="28.835698" lon="105.483055"><ele>354.12564</ele><time>2026-03-28T01:31:00.000Z</time></trkpt>
        <trkpt lat="28.835687" lon="105.483109"><ele>353.83057</ele><time>2026-03-28T01:31:11.000Z</time></trkpt>
        <trkpt lat="28.835664" lon="105.483152"><ele>353.93457</ele><time>2026-03-28T01:31:19.000Z</time></trkpt>
        <trkpt lat="28.835669" lon="105.483203"><ele>353.9707</ele><time>2026-03-28T01:31:24.000Z</time></trkpt>
        <trkpt lat="28.835682" lon="105.483253"><ele>354.1482</ele><time>2026-03-28T01:31:29.000Z</time></trkpt>
        <trkpt lat="28.835701" lon="105.483303"><ele>352.839</ele><time>2026-03-28T01:31:34.000Z</time></trkpt>
        <trkpt lat="28.835729" lon="105.483353"><ele>351.91995</ele><time>2026-03-28T01:31:43.000Z</time></trkpt>
        <trkpt lat="28.83577" lon="105.483381"><ele>352.39615</ele><time>2026-03-28T01:31:50.000Z</time></trkpt>
        <trkpt lat="28.835819" lon="105.483418"><ele>351.48392</ele><time>2026-03-28T01:32:04.000Z</time></trkpt>
        <trkpt lat="28.835864" lon="105.483418"><ele>351.8553</ele><time>2026-03-28T01:32:18.000Z</time></trkpt>
        <trkpt lat="28.835907" lon="105.483437"><ele>351.5609</ele><time>2026-03-28T01:32:26.000Z</time></trkpt>
        <trkpt lat="28.835944" lon="105.483467"><ele>351.63956</ele><time>2026-03-28T01:32:31.000Z</time></trkpt>
        <trkpt lat="28.835986" lon="105.48351"><ele>352.73395</ele><time>2026-03-28T01:32:41.000Z</time></trkpt>
        <trkpt lat="28.83603" lon="105.483497"><ele>352.14746</ele><time>2026-03-28T01:33:15.000Z</time></trkpt>
        <trkpt lat="28.836054" lon="105.483523"><ele>352.799</ele><time>2026-03-28T01:33:21.000Z</time></trkpt>
        <trkpt lat="28.836105" lon="105.483564"><ele>352.54926</ele><time>2026-03-28T01:33:35.000Z</time></trkpt>
        <trkpt lat="28.836148" lon="105.483597"><ele>353.37924</ele><time>2026-03-28T01:34:05.000Z</time></trkpt>
        <trkpt lat="28.836188" lon="105.483619"><ele>352.91098</ele><time>2026-03-28T01:34:16.000Z</time></trkpt>
        <trkpt lat="28.836221" lon="105.483661"><ele>352.0929</ele><time>2026-03-28T01:34:24.000Z</time></trkpt>
        <trkpt lat="28.836254" lon="105.483709"><ele>352.33234</ele><time>2026-03-28T01:34:41.000Z</time></trkpt>
        <trkpt lat="28.836301" lon="105.483723"><ele>352.43253</ele><time>2026-03-28T01:35:35.000Z</time></trkpt>
        <trkpt lat="28.836327" lon="105.483753"><ele>352.18448</ele><time>2026-03-28T01:35:41.000Z</time></trkpt>
        <trkpt lat="28.836355" lon="105.483805"><ele>351.96454</ele><time>2026-03-28T01:35:49.000Z</time></trkpt>
        <trkpt lat="28.83639" lon="105.483842"><ele>351.69635</ele><time>2026-03-28T01:35:57.000Z</time></trkpt>
        <trkpt lat="28.836435" lon="105.483869"><ele>351.55698</ele><time>2026-03-28T01:36:03.000Z</time></trkpt>
        <trkpt lat="28.836472" lon="105.483901"><ele>351.43857</ele><time>2026-03-28T01:36:08.000Z</time></trkpt>
        <trkpt lat="28.836515" lon="105.483927"><ele>350.98953</ele><time>2026-03-28T01:36:14.000Z</time></trkpt>
        <trkpt lat="28.836559" lon="105.483957"><ele>351.74448</ele><time>2026-03-28T01:36:21.000Z</time></trkpt>
        <trkpt lat="28.836606" lon="105.483988"><ele>351.43958</ele><time>2026-03-28T01:36:27.000Z</time></trkpt>
        <trkpt lat="28.836657" lon="105.484018"><ele>351.30377</ele><time>2026-03-28T01:36:36.000Z</time></trkpt>
        <trkpt lat="28.836703" lon="105.484035"><ele>351.7953</ele><time>2026-03-28T01:36:50.000Z</time></trkpt>
        <trkpt lat="28.836729" lon="105.484059"><ele>352.17578</ele><time>2026-03-28T01:36:54.000Z</time></trkpt>
        <trkpt lat="28.83677" lon="105.484098"><ele>352.86728</ele><time>2026-03-28T01:37:00.000Z</time></trkpt>
        <trkpt lat="28.836814" lon="105.484129"><ele>353.27255</ele><time>2026-03-28T01:37:06.000Z</time></trkpt>
        <trkpt lat="28.836851" lon="105.484169"><ele>353.24078</ele><time>2026-03-28T01:37:11.000Z</time></trkpt>
        <trkpt lat="28.836893" lon="105.484203"><ele>353.2453</ele><time>2026-03-28T01:37:18.000Z</time></trkpt>
        <trkpt lat="28.83693" lon="105.484233"><ele>353.75208</ele><time>2026-03-28T01:37:24.000Z</time></trkpt>
        <trkpt lat="28.83697" lon="105.484264"><ele>354.3102</ele><time>2026-03-28T01:37:30.000Z</time></trkpt>
        <trkpt lat="28.837017" lon="105.484284"><ele>353.41196</ele><time>2026-03-28T01:37:40.000Z</time></trkpt>
        <trkpt lat="28.837055" lon="105.484316"><ele>353.5905</ele><time>2026-03-28T01:37:46.000Z</time></trkpt>
        <trkpt lat="28.837105" lon="105.484339"><ele>353.49506</ele><time>2026-03-28T01:37:52.000Z</time></trkpt>
        <trkpt lat="28.83716" lon="105.484347"><ele>353.5075</ele><time>2026-03-28T01:37:57.000Z</time></trkpt>
        <trkpt lat="28.837225" lon="105.484365"><ele>353.18274</ele><time>2026-03-28T01:38:04.000Z</time></trkpt>
        <trkpt lat="28.837271" lon="105.484387"><ele>353.50772</ele><time>2026-03-28T01:38:10.000Z</time></trkpt>
        <trkpt lat="28.837306" lon="105.484417"><ele>354.11636</ele><time>2026-03-28T01:38:15.000Z</time></trkpt>
        <trkpt lat="28.837345" lon="105.484444"><ele>354.4206</ele><time>2026-03-28T01:38:20.000Z</time></trkpt>
        <trkpt lat="28.837383" lon="105.484475"><ele>354.05487</ele><time>2026-03-28T01:38:26.000Z</time></trkpt>
        <trkpt lat="28.837427" lon="105.484512"><ele>353.72562</ele><time>2026-03-28T01:38:32.000Z</time></trkpt>
        <trkpt lat="28.837466" lon="105.484545"><ele>353.40768</ele><time>2026-03-28T01:38:37.000Z</time></trkpt>
        <trkpt lat="28.837504" lon="105.484578"><ele>353.38495</ele><time>2026-03-28T01:38:42.000Z</time></trkpt>
        <trkpt lat="28.837544" lon="105.484616"><ele>353.71985</ele><time>2026-03-28T01:38:48.000Z</time></trkpt>
        <trkpt lat="28.837583" lon="105.484647"><ele>354.13895</ele><time>2026-03-28T01:38:53.000Z</time></trkpt>
        <trkpt lat="28.83763" lon="105.484676"><ele>353.95795</ele><time>2026-03-28T01:38:59.000Z</time></trkpt>
        <trkpt lat="28.837673" lon="105.484692"><ele>353.53796</ele><time>2026-03-28T01:39:04.000Z</time></trkpt>
        <trkpt lat="28.837723" lon="105.48472"><ele>353.00717</ele><time>2026-03-28T01:39:10.000Z</time></trkpt>
        <trkpt lat="28.837758" lon="105.48475"><ele>352.51813</ele><time>2026-03-28T01:39:14.000Z</time></trkpt>
        <trkpt lat="28.837794" lon="105.484798"><ele>352.73837</ele><time>2026-03-28T01:39:19.000Z</time></trkpt>
        <trkpt lat="28.837827" lon="105.48484"><ele>352.62143</ele><time>2026-03-28T01:39:24.000Z</time></trkpt>
        <trkpt lat="28.837865" lon="105.484885"><ele>352.59103</ele><time>2026-03-28T01:39:30.000Z</time></trkpt>
        <trkpt lat="28.837899" lon="105.484927"><ele>352.19397</ele><time>2026-03-28T01:39:34.000Z</time></trkpt>
        <trkpt lat="28.837937" lon="105.484958"><ele>352.24228</ele><time>2026-03-28T01:39:39.000Z</time></trkpt>
        <trkpt lat="28.837976" lon="105.484992"><ele>352.34344</ele><time>2026-03-28T01:39:44.000Z</time></trkpt>
        <trkpt lat="28.838012" lon="105.485037"><ele>352.03714</ele><time>2026-03-28T01:39:49.000Z</time></trkpt>
        <trkpt lat="28.83804" lon="105.485088"><ele>352.4991</ele><time>2026-03-28T01:39:54.000Z</time></trkpt>
        <trkpt lat="28.838078" lon="105.485131"><ele>352.1371</ele><time>2026-03-28T01:39:59.000Z</time></trkpt>
        <trkpt lat="28.83811" lon="105.485176"><ele>351.88797</ele><time>2026-03-28T01:40:03.000Z</time></trkpt>
        <trkpt lat="28.838156" lon="105.485217"><ele>351.46005</ele><time>2026-03-28T01:40:09.000Z</time></trkpt>
        <trkpt lat="28.838205" lon="105.485247"><ele>351.01355</ele><time>2026-03-28T01:40:15.000Z</time></trkpt>
        <trkpt lat="28.83825" lon="105.485264"><ele>350.98477</ele><time>2026-03-28T01:40:20.000Z</time></trkpt>
        <trkpt lat="28.838295" lon="105.485275"><ele>350.79056</ele><time>2026-03-28T01:40:24.000Z</time></trkpt>
        <trkpt lat="28.838351" lon="105.485284"><ele>350.71707</ele><time>2026-03-28T01:40:29.000Z</time></trkpt>
        <trkpt lat="28.838407" lon="105.485296"><ele>351.52136</ele><time>2026-03-28T01:40:35.000Z</time></trkpt>
        <trkpt lat="28.838461" lon="105.485307"><ele>351.90594</ele><time>2026-03-28T01:40:40.000Z</time></trkpt>
        <trkpt lat="28.83852" lon="105.485306"><ele>352.32635</ele><time>2026-03-28T01:40:47.000Z</time></trkpt>
        <trkpt lat="28.838566" lon="105.485301"><ele>351.695</ele><time>2026-03-28T01:40:52.000Z</time></trkpt>
        <trkpt lat="28.838623" lon="105.485295"><ele>350.95685</ele><time>2026-03-28T01:40:58.000Z</time></trkpt>
        <trkpt lat="28.838665" lon="105.485283"><ele>350.13007</ele><time>2026-03-28T01:41:02.000Z</time></trkpt>
        <trkpt lat="28.838714" lon="105.485274"><ele>349.52637</ele><time>2026-03-28T01:41:07.000Z</time></trkpt>
        <trkpt lat="28.838758" lon="105.485288"><ele>350.07486</ele><time>2026-03-28T01:41:11.000Z</time></trkpt>
        <trkpt lat="28.838814" lon="105.48532"><ele>351.19412</ele><time>2026-03-28T01:41:17.000Z</time></trkpt>
        <trkpt lat="28.838862" lon="105.485336"><ele>351.42856</ele><time>2026-03-28T01:41:22.000Z</time></trkpt>
        <trkpt lat="28.838908" lon="105.485333"><ele>351.2267</ele><time>2026-03-28T01:41:27.000Z</time></trkpt>
        <trkpt lat="28.838956" lon="105.48535"><ele>350.72122</ele><time>2026-03-28T01:41:33.000Z</time></trkpt>
        <trkpt lat="28.839001" lon="105.485371"><ele>350.31128</ele><time>2026-03-28T01:41:37.000Z</time></trkpt>
        <trkpt lat="28.839052" lon="105.485383"><ele>349.6863</ele><time>2026-03-28T01:41:43.000Z</time></trkpt>
        <trkpt lat="28.839096" lon="105.485401"><ele>349.43018</ele><time>2026-03-28T01:41:47.000Z</time></trkpt>
        <trkpt lat="28.839137" lon="105.485427"><ele>349.75208</ele><time>2026-03-28T01:41:51.000Z</time></trkpt>
        <trkpt lat="28.839178" lon="105.485454"><ele>349.63974</ele><time>2026-03-28T01:41:55.000Z</time></trkpt>
        <trkpt lat="28.839204" lon="105.485493"><ele>349.44614</ele><time>2026-03-28T01:41:58.000Z</time></trkpt>
        <trkpt lat="28.83924" lon="105.485544"><ele>348.5599</ele><time>2026-03-28T01:42:03.000Z</time></trkpt>
        <trkpt lat="28.839278" lon="105.485587"><ele>347.60782</ele><time>2026-03-28T01:42:08.000Z</time></trkpt>
        <trkpt lat="28.839306" lon="105.485625"><ele>347.68402</ele><time>2026-03-28T01:42:12.000Z</time></trkpt>
        <trkpt lat="28.839336" lon="105.485668"><ele>347.68655</ele><time>2026-03-28T01:42:17.000Z</time></trkpt>
        <trkpt lat="28.839374" lon="105.485712"><ele>347.25616</ele><time>2026-03-28T01:42:24.000Z</time></trkpt>
        <trkpt lat="28.839414" lon="105.485756"><ele>346.90326</ele><time>2026-03-28T01:42:36.000Z</time></trkpt>
        <trkpt lat="28.839435" lon="105.485798"><ele>346.48074</ele><time>2026-03-28T01:42:42.000Z</time></trkpt>
        <trkpt lat="28.839469" lon="105.485854"><ele>346.02997</ele><time>2026-03-28T01:42:48.000Z</time></trkpt>
        <trkpt lat="28.839501" lon="105.485909"><ele>346.12964</ele><time>2026-03-28T01:42:53.000Z</time></trkpt>
        <trkpt lat="28.839528" lon="105.485961"><ele>346.27554</ele><time>2026-03-28T01:42:58.000Z</time></trkpt>
        <trkpt lat="28.839556" lon="105.486013"><ele>346.18277</ele><time>2026-03-28T01:43:04.000Z</time></trkpt>
        <trkpt lat="28.839582" lon="105.486054"><ele>346.1006</ele><time>2026-03-28T01:43:09.000Z</time></trkpt>
        <trkpt lat="28.839615" lon="105.486102"><ele>345.7991</ele><time>2026-03-28T01:43:15.000Z</time></trkpt>
        <trkpt lat="28.839643" lon="105.486146"><ele>345.77957</ele><time>2026-03-28T01:43:20.000Z</time></trkpt>
        <trkpt lat="28.839677" lon="105.486189"><ele>346.1784</ele><time>2026-03-28T01:43:26.000Z</time></trkpt>
        <trkpt lat="28.83971" lon="105.486228"><ele>345.77185</ele><time>2026-03-28T01:43:32.000Z</time></trkpt>
        <trkpt lat="28.839743" lon="105.486277"><ele>345.66095</ele><time>2026-03-28T01:43:38.000Z</time></trkpt>
        <trkpt lat="28.839752" lon="105.486324"><ele>346.33792</ele><time>2026-03-28T01:43:41.000Z</time></trkpt>
        <trkpt lat="28.839775" lon="105.486383"><ele>346.55798</ele><time>2026-03-28T01:43:45.000Z</time></trkpt>
        <trkpt lat="28.839802" lon="105.48644"><ele>346.8033</ele><time>2026-03-28T01:43:52.000Z</time></trkpt>
        <trkpt lat="28.83982" lon="105.486489"><ele>346.8989</ele><time>2026-03-28T01:43:58.000Z</time></trkpt>
        <trkpt lat="28.83983" lon="105.486543"><ele>346.75174</ele><time>2026-03-28T01:44:04.000Z</time></trkpt>
        <trkpt lat="28.839833" lon="105.486597"><ele>347.0145</ele><time>2026-03-28T01:44:09.000Z</time></trkpt>
        <trkpt lat="28.839837" lon="105.486654"><ele>347.2592</ele><time>2026-03-28T01:44:15.000Z</time></trkpt>
        <trkpt lat="28.839854" lon="105.486709"><ele>346.50488</ele><time>2026-03-28T01:44:32.000Z</time></trkpt>
        <trkpt lat="28.839876" lon="105.486754"><ele>346.88437</ele><time>2026-03-28T01:44:47.000Z</time></trkpt>
        <trkpt lat="28.839897" lon="105.486805"><ele>346.48972</ele><time>2026-03-28T01:44:53.000Z</time></trkpt>
        <trkpt lat="28.839928" lon="105.486855"><ele>346.61234</ele><time>2026-03-28T01:44:59.000Z</time></trkpt>
        <trkpt lat="28.839962" lon="105.486904"><ele>346.55988</ele><time>2026-03-28T01:45:05.000Z</time></trkpt>
        <trkpt lat="28.840001" lon="105.486942"><ele>346.54495</ele><time>2026-03-28T01:45:11.000Z</time></trkpt>
        <trkpt lat="28.840038" lon="105.486979"><ele>346.15564</ele><time>2026-03-28T01:45:16.000Z</time></trkpt>
        <trkpt lat="28.840085" lon="105.487006"><ele>345.76535</ele><time>2026-03-28T01:45:24.000Z</time></trkpt>
        <trkpt lat="28.840126" lon="105.487029"><ele>345.3812</ele><time>2026-03-28T01:45:35.000Z</time></trkpt>
        <trkpt lat="28.840171" lon="105.487042"><ele>345.40176</ele><time>2026-03-28T01:45:47.000Z</time></trkpt>
        <trkpt lat="28.840211" lon="105.487065"><ele>345.57248</ele><time>2026-03-28T01:45:56.000Z</time></trkpt>
        <trkpt lat="28.840248" lon="105.487089"><ele>345.5292</ele><time>2026-03-28T01:46:02.000Z</time></trkpt>
        <trkpt lat="28.840294" lon="105.487107"><ele>345.4221</ele><time>2026-03-28T01:46:08.000Z</time></trkpt>
        <trkpt lat="28.840345" lon="105.48713"><ele>345.43945</ele><time>2026-03-28T01:46:15.000Z</time></trkpt>
        <trkpt lat="28.840391" lon="105.487155"><ele>345.83585</ele><time>2026-03-28T01:46:21.000Z</time></trkpt>
        <trkpt lat="28.840436" lon="105.487175"><ele>346.37225</ele><time>2026-03-28T01:46:27.000Z</time></trkpt>
        <trkpt lat="28.840486" lon="105.48719"><ele>346.6486</ele><time>2026-03-28T01:46:33.000Z</time></trkpt>
        <trkpt lat="28.84053" lon="105.487223"><ele>347.1544</ele><time>2026-03-28T01:46:39.000Z</time></trkpt>
        <trkpt lat="28.840563" lon="105.487273"><ele>347.79022</ele><time>2026-03-28T01:46:45.000Z</time></trkpt>
        <trkpt lat="28.840589" lon="105.487325"><ele>348.26605</ele><time>2026-03-28T01:46:53.000Z</time></trkpt>
        <trkpt lat="28.840632" lon="105.487357"><ele>348.5252</ele><time>2026-03-28T01:47:03.000Z</time></trkpt>
        <trkpt lat="28.840689" lon="105.487374"><ele>347.56137</ele><time>2026-03-28T01:49:39.000Z</time></trkpt>
        <trkpt lat="28.840721" lon="105.487397"><ele>347.84967</ele><time>2026-03-28T01:49:45.000Z</time></trkpt>
        <trkpt lat="28.840743" lon="105.48746"><ele>348.83777</ele><time>2026-03-28T01:49:52.000Z</time></trkpt>
        <trkpt lat="28.840761" lon="105.487522"><ele>349.3553</ele><time>2026-03-28T01:49:59.000Z</time></trkpt>
        <trkpt lat="28.840782" lon="105.487579"><ele>349.4357</ele><time>2026-03-28T01:50:08.000Z</time></trkpt>
        <trkpt lat="28.840798" lon="105.487625"><ele>349.8589</ele><time>2026-03-28T01:50:14.000Z</time></trkpt>
        <trkpt lat="28.84082" lon="105.487679"><ele>349.70126</ele><time>2026-03-28T01:50:20.000Z</time></trkpt>
        <trkpt lat="28.840836" lon="105.487743"><ele>349.74335</ele><time>2026-03-28T01:50:27.000Z</time></trkpt>
        <trkpt lat="28.840848" lon="105.487794"><ele>349.51102</ele><time>2026-03-28T01:50:33.000Z</time></trkpt>
        <trkpt lat="28.840849" lon="105.487846"><ele>349.57266</ele><time>2026-03-28T01:50:39.000Z</time></trkpt>
        <trkpt lat="28.840826" lon="105.487896"><ele>349.559</ele><time>2026-03-28T01:50:45.000Z</time></trkpt>
        <trkpt lat="28.840771" lon="105.487895"><ele>349.6231</ele><time>2026-03-28T01:51:19.000Z</time></trkpt>
        <trkpt lat="28.840821" lon="105.487905"><ele>349.278</ele><time>2026-03-28T01:51:48.000Z</time></trkpt>
        <trkpt lat="28.840856" lon="105.487927"><ele>349.69238</ele><time>2026-03-28T01:51:51.000Z</time></trkpt>
        <trkpt lat="28.840887" lon="105.487978"><ele>350.55927</ele><time>2026-03-28T01:51:56.000Z</time></trkpt>
        <trkpt lat="28.840917" lon="105.488031"><ele>350.63217</ele><time>2026-03-28T01:52:02.000Z</time></trkpt>
        <trkpt lat="28.840946" lon="105.488075"><ele>351.00873</ele><time>2026-03-28T01:52:07.000Z</time></trkpt>
        <trkpt lat="28.840973" lon="105.488117"><ele>351.8251</ele><time>2026-03-28T01:52:11.000Z</time></trkpt>
        <trkpt lat="28.840999" lon="105.488164"><ele>352.66672</ele><time>2026-03-28T01:52:14.000Z</time></trkpt>
        <trkpt lat="28.841031" lon="105.488222"><ele>352.71216</ele><time>2026-03-28T01:52:19.000Z</time></trkpt>
        <trkpt lat="28.841063" lon="105.488273"><ele>352.18643</ele><time>2026-03-28T01:52:24.000Z</time></trkpt>
        <trkpt lat="28.841085" lon="105.488328"><ele>351.56665</ele><time>2026-03-28T01:52:29.000Z</time></trkpt>
        <trkpt lat="28.841113" lon="105.488373"><ele>351.17548</ele><time>2026-03-28T01:52:34.000Z</time></trkpt>
        <trkpt lat="28.841149" lon="105.488421"><ele>351.56525</ele><time>2026-03-28T01:52:40.000Z</time></trkpt>
        <trkpt lat="28.841188" lon="105.488452"><ele>352.01736</ele><time>2026-03-28T01:52:44.000Z</time></trkpt>
        <trkpt lat="28.84122" lon="105.4885"><ele>352.2993</ele><time>2026-03-28T01:52:49.000Z</time></trkpt>
        <trkpt lat="28.841244" lon="105.48855"><ele>352.7314</ele><time>2026-03-28T01:52:54.000Z</time></trkpt>
        <trkpt lat="28.841282" lon="105.488584"><ele>352.81662</ele><time>2026-03-28T01:52:59.000Z</time></trkpt>
        <trkpt lat="28.841329" lon="105.488601"><ele>352.95462</ele><time>2026-03-28T01:53:04.000Z</time></trkpt>
        <trkpt lat="28.841377" lon="105.488619"><ele>352.2799</ele><time>2026-03-28T01:53:11.000Z</time></trkpt>
        <trkpt lat="28.841408" lon="105.488655"><ele>352.7092</ele><time>2026-03-28T01:53:15.000Z</time></trkpt>
        <trkpt lat="28.841451" lon="105.488691"><ele>352.88318</ele><time>2026-03-28T01:53:21.000Z</time></trkpt>
        <trkpt lat="28.841493" lon="105.488715"><ele>352.68372</ele><time>2026-03-28T01:53:26.000Z</time></trkpt>
        <trkpt lat="28.841541" lon="105.488738"><ele>351.7085</ele><time>2026-03-28T01:53:31.000Z</time></trkpt>
        <trkpt lat="28.841584" lon="105.488767"><ele>351.3388</ele><time>2026-03-28T01:53:36.000Z</time></trkpt>
        <trkpt lat="28.841628" lon="105.488801"><ele>351.21515</ele><time>2026-03-28T01:53:43.000Z</time></trkpt>
        <trkpt lat="28.841671" lon="105.488799"><ele>351.59247</ele><time>2026-03-28T01:53:48.000Z</time></trkpt>
        <trkpt lat="28.841715" lon="105.488794"><ele>351.57925</ele><time>2026-03-28T01:53:52.000Z</time></trkpt>
        <trkpt lat="28.841769" lon="105.488821"><ele>351.11407</ele><time>2026-03-28T01:53:58.000Z</time></trkpt>
        <trkpt lat="28.841812" lon="105.488842"><ele>350.57895</ele><time>2026-03-28T01:54:03.000Z</time></trkpt>
        <trkpt lat="28.841854" lon="105.488865"><ele>350.54587</ele><time>2026-03-28T01:54:08.000Z</time></trkpt>
        <trkpt lat="28.841902" lon="105.488879"><ele>351.0189</ele><time>2026-03-28T01:54:13.000Z</time></trkpt>
        <trkpt lat="28.841939" lon="105.48891"><ele>351.20554</ele><time>2026-03-28T01:54:17.000Z</time></trkpt>
        <trkpt lat="28.841993" lon="105.488934"><ele>350.63513</ele><time>2026-03-28T01:54:22.000Z</time></trkpt>
        <trkpt lat="28.84204" lon="105.488949"><ele>349.98477</ele><time>2026-03-28T01:54:26.000Z</time></trkpt>
        <trkpt lat="28.842103" lon="105.488957"><ele>349.85605</ele><time>2026-03-28T01:54:32.000Z</time></trkpt>
        <trkpt lat="28.842152" lon="105.488976"><ele>349.87637</ele><time>2026-03-28T01:54:38.000Z</time></trkpt>
        <trkpt lat="28.842199" lon="105.488966"><ele>349.96085</ele><time>2026-03-28T01:54:43.000Z</time></trkpt>
        <trkpt lat="28.842248" lon="105.488973"><ele>349.5404</ele><time>2026-03-28T01:54:51.000Z</time></trkpt>
        <trkpt lat="28.842297" lon="105.488976"><ele>348.96738</ele><time>2026-03-28T01:54:58.000Z</time></trkpt>
        <trkpt lat="28.842341" lon="105.488971"><ele>349.33972</ele><time>2026-03-28T01:55:02.000Z</time></trkpt>
        <trkpt lat="28.842397" lon="105.488987"><ele>349.37994</ele><time>2026-03-28T01:55:07.000Z</time></trkpt>
        <trkpt lat="28.842433" lon="105.489031"><ele>349.26746</ele><time>2026-03-28T01:55:12.000Z</time></trkpt>
        <trkpt lat="28.842476" lon="105.489073"><ele>349.13855</ele><time>2026-03-28T01:55:19.000Z</time></trkpt>
        <trkpt lat="28.842523" lon="105.489078"><ele>348.95264</ele><time>2026-03-28T01:55:25.000Z</time></trkpt>
        <trkpt lat="28.842559" lon="105.489055"><ele>348.6972</ele><time>2026-03-28T01:55:28.000Z</time></trkpt>
        <trkpt lat="28.842605" lon="105.489057"><ele>349.17508</ele><time>2026-03-28T01:55:32.000Z</time></trkpt>
        <trkpt lat="28.842664" lon="105.489087"><ele>349.0737</ele><time>2026-03-28T01:55:40.000Z</time></trkpt>
        <trkpt lat="28.842697" lon="105.489136"><ele>348.6328</ele><time>2026-03-28T01:55:47.000Z</time></trkpt>
        <trkpt lat="28.842744" lon="105.489154"><ele>348.44186</ele><time>2026-03-28T01:55:53.000Z</time></trkpt>
        <trkpt lat="28.84278" lon="105.489192"><ele>347.72086</ele><time>2026-03-28T01:55:59.000Z</time></trkpt>
        <trkpt lat="28.842819" lon="105.48923"><ele>346.56433</ele><time>2026-03-28T01:56:08.000Z</time></trkpt>
        <trkpt lat="28.842847" lon="105.489284"><ele>346.2243</ele><time>2026-03-28T01:56:20.000Z</time></trkpt>
      </trkseg>
  </trk>
</gpx>